<?xml version="1.0" encoding="UTF-8" standalone="no" ?>
<gpx xmlns="http://www.topografix.com/GPX/1/1" xmlns:xsi="http://www.w3.org/2001/XMLSchema-instance" xsi:schemaLocation="http://www.topografix.com/GPX/1/1 http://www.topografix.com/GPX/1/1/gpx.xsd" version="1.1" creator="VisuGPX - https://www.visugpx.com">
  <metadata>
    <name>SC3005G2_55km</name>
  </metadata>
  <trk>
    <name><![CDATA[Rue des Fiefs-Rue de Briffoeil-Rue de Mortagne]]></name>
    <trkseg>
      <trkpt lat="50.50366" lon="3.46457">
        <ele>22.252652</ele>
        <time>2021-05-26T18:53:43.827Z</time>
      </trkpt>
      <trkpt lat="50.50371" lon="3.46461">
        <ele>22.252652</ele>
        <time>2021-05-26T18:53:44.952Z</time>
      </trkpt>
      <trkpt lat="50.50523" lon="3.46572">
        <ele>23.108552</ele>
        <time>2021-05-26T18:54:15.471Z</time>
      </trkpt>
      <trkpt lat="50.50681" lon="3.46651">
        <ele>24.57384</ele>
        <time>2021-05-26T18:54:47.722Z</time>
      </trkpt>
      <trkpt lat="50.50708" lon="3.46672">
        <ele>24.778357</ele>
        <time>2021-05-26T18:54:53.056Z</time>
      </trkpt>
      <trkpt lat="50.50735" lon="3.46707">
        <ele>25.017818</ele>
        <time>2021-05-26T18:54:58.963Z</time>
      </trkpt>
      <trkpt lat="50.50778" lon="3.46766">
        <ele>25.301182</ele>
        <time>2021-05-26T18:55:08.015Z</time>
      </trkpt>
      <trkpt lat="50.50821" lon="3.46826">
        <ele>25.176528</ele>
        <time>2021-05-26T18:55:16.624Z</time>
      </trkpt>
      <trkpt lat="50.50831" lon="3.4684">
        <ele>25.148269</ele>
        <time>2021-05-26T18:55:18.426Z</time>
      </trkpt>
      <trkpt lat="50.50837" lon="3.46857">
        <ele>25.121053</ele>
        <time>2021-05-26T18:55:20.218Z</time>
      </trkpt>
      <trkpt lat="50.50838" lon="3.46879">
        <ele>25.091074</ele>
        <time>2021-05-26T18:55:22.088Z</time>
      </trkpt>
      <trkpt lat="50.50839" lon="3.46894">
        <ele>25.070788</ele>
        <time>2021-05-26T18:55:23.298Z</time>
      </trkpt>
      <trkpt lat="50.5084" lon="3.46941">
        <ele>25.006068</ele>
        <time>2021-05-26T18:55:27.264Z</time>
      </trkpt>
      <trkpt lat="50.5085" lon="3.46978">
        <ele>24.950478</ele>
        <time>2021-05-26T18:55:30.684Z</time>
      </trkpt>
      <trkpt lat="50.50871" lon="3.47017">
        <ele>24.807441</ele>
        <time>2021-05-26T18:55:35.005Z</time>
      </trkpt>
      <trkpt lat="50.50899" lon="3.47062">
        <ele>24.612999</ele>
        <time>2021-05-26T18:55:40.284Z</time>
      </trkpt>
      <trkpt lat="50.50936" lon="3.47116">
        <ele>24.36456</ele>
        <time>2021-05-26T18:55:46.942Z</time>
      </trkpt>
      <trkpt lat="50.50985" lon="3.47169">
        <ele>24.071711</ele>
        <time>2021-05-26T18:55:54.964Z</time>
      </trkpt>
      <trkpt lat="50.51052" lon="3.47236">
        <ele>23.734736</ele>
        <time>2021-05-26T18:56:05.593Z</time>
      </trkpt>
      <trkpt lat="50.51059" lon="3.47247">
        <ele>23.694704</ele>
        <time>2021-05-26T18:56:06.884Z</time>
      </trkpt>
      <trkpt lat="50.51066" lon="3.47262">
        <ele>23.643784</ele>
        <time>2021-05-26T18:56:08.508Z</time>
      </trkpt>
      <trkpt lat="50.51065" lon="3.47278">
        <ele>23.600032</ele>
        <time>2021-05-26T18:56:09.925Z</time>
      </trkpt>
      <trkpt lat="50.51006" lon="3.47445">
        <ele>23.017715</ele>
        <time>2021-05-26T18:56:26.250Z</time>
      </trkpt>
      <trkpt lat="50.51016" lon="3.47475">
        <ele>22.895191</ele>
        <time>2021-05-26T18:56:29.193Z</time>
      </trkpt>
      <trkpt lat="50.51082" lon="3.4755">
        <ele>22.437036</ele>
        <time>2021-05-26T18:56:39.681Z</time>
      </trkpt>
      <trkpt lat="50.51104" lon="3.47596">
        <ele>22.241691</ele>
        <time>2021-05-26T18:56:44.345Z</time>
      </trkpt>
      <trkpt lat="50.5111" lon="3.47622">
        <ele>22.164669</ele>
        <time>2021-05-26T18:56:46.556Z</time>
      </trkpt>
      <trkpt lat="50.51109" lon="3.47654">
        <ele>22.078072</ele>
        <time>2021-05-26T18:56:49.264Z</time>
      </trkpt>
      <trkpt lat="50.51104" lon="3.47687">
        <ele>21.985037</ele>
        <time>2021-05-26T18:56:52.000Z</time>
      </trkpt>
      <trkpt lat="50.5108" lon="3.47774">
        <ele>21.72349</ele>
        <time>2021-05-26T18:57:00.272Z</time>
      </trkpt>
      <trkpt lat="50.51082" lon="3.47786">
        <ele>21.690725</ele>
        <time>2021-05-26T18:57:01.187Z</time>
      </trkpt>
      <trkpt lat="50.5109" lon="3.47798">
        <ele>21.641792</ele>
        <time>2021-05-26T18:57:02.971Z</time>
      </trkpt>
      <trkpt lat="50.51109" lon="3.47824">
        <ele>21.534703</ele>
        <time>2021-05-26T18:57:06.355Z</time>
      </trkpt>
      <trkpt lat="50.51122" lon="3.47856">
        <ele>21.499182</ele>
        <time>2021-05-26T18:57:10.119Z</time>
      </trkpt>
      <trkpt lat="50.51125" lon="3.47964">
        <ele>21.486375</ele>
        <time>2021-05-26T18:57:20.222Z</time>
      </trkpt>
      <trkpt lat="50.51129" lon="3.48001">
        <ele>21.481923</ele>
        <time>2021-05-26T18:57:23.646Z</time>
      </trkpt>
      <trkpt lat="50.51132" lon="3.48019">
        <ele>21.479731</ele>
        <time>2021-05-26T18:57:25.660Z</time>
      </trkpt>
      <trkpt lat="50.51138" lon="3.48111">
        <ele>21.469106</ele>
        <time>2021-05-26T18:57:34.459Z</time>
      </trkpt>
      <trkpt lat="50.51143" lon="3.48169">
        <ele>21.488942</ele>
        <time>2021-05-26T18:57:39.932Z</time>
      </trkpt>
      <trkpt lat="50.51135" lon="3.48237">
        <ele>21.512363</ele>
        <time>2021-05-26T18:57:46.376Z</time>
      </trkpt>
      <trkpt lat="50.5113" lon="3.48251">
        <ele>21.517577</ele>
        <time>2021-05-26T18:57:47.842Z</time>
      </trkpt>
      <trkpt lat="50.5112" lon="3.48278">
        <ele>21.528373</ele>
        <time>2021-05-26T18:57:50.624Z</time>
      </trkpt>
      <trkpt lat="50.511" lon="3.48334">
        <ele>21.550244</ele>
        <time>2021-05-26T18:57:56.817Z</time>
      </trkpt>
      <trkpt lat="50.51092" lon="3.48355">
        <ele>21.558264</ele>
        <time>2021-05-26T18:57:59.257Z</time>
      </trkpt>
      <trkpt lat="50.51087" lon="3.48377">
        <ele>21.58474</ele>
        <time>2021-05-26T18:58:01.632Z</time>
      </trkpt>
      <trkpt lat="50.51082" lon="3.4846">
        <ele>21.94521</ele>
        <time>2021-05-26T18:58:10.647Z</time>
      </trkpt>
      <trkpt lat="50.5108" lon="3.48506">
        <ele>22.145403</ele>
        <time>2021-05-26T18:58:15.775Z</time>
      </trkpt>
      <trkpt lat="50.51082" lon="3.48534">
        <ele>22.266314</ele>
        <time>2021-05-26T18:58:18.938Z</time>
      </trkpt>
      <trkpt lat="50.51087" lon="3.48604">
        <ele>22.570922</ele>
        <time>2021-05-26T18:58:27.147Z</time>
      </trkpt>
      <trkpt lat="50.51084" lon="3.48625">
        <ele>22.664521</ele>
        <time>2021-05-26T18:58:29.872Z</time>
      </trkpt>
      <trkpt lat="50.51065" lon="3.48691">
        <ele>22.882707</ele>
        <time>2021-05-26T18:58:38.436Z</time>
      </trkpt>
      <trkpt lat="50.5108" lon="3.48708">
        <ele>22.944483</ele>
        <time>2021-05-26T18:58:41.664Z</time>
      </trkpt>
      <trkpt lat="50.51096" lon="3.4873">
        <ele>23.01945</ele>
        <time>2021-05-26T18:58:45.454Z</time>
      </trkpt>
      <trkpt lat="50.51113" lon="3.48814">
        <ele>23.211939</ele>
        <time>2021-05-26T18:58:54.894Z</time>
      </trkpt>
      <trkpt lat="50.51135" lon="3.4885">
        <ele>23.321099</ele>
        <time>2021-05-26T18:58:59.459Z</time>
      </trkpt>
      <trkpt lat="50.5114" lon="3.48867">
        <ele>23.363213</ele>
        <time>2021-05-26T18:59:01.342Z</time>
      </trkpt>
      <trkpt lat="50.51144" lon="3.48878">
        <ele>23.389403</ele>
        <time>2021-05-26T18:59:02.235Z</time>
      </trkpt>
      <trkpt lat="50.5114" lon="3.48908">
        <ele>23.306258</ele>
        <time>2021-05-26T18:59:05.166Z</time>
      </trkpt>
      <trkpt lat="50.51084" lon="3.49038">
        <ele>22.597394</ele>
        <time>2021-05-26T18:59:17.820Z</time>
      </trkpt>
      <trkpt lat="50.5104" lon="3.49284">
        <ele>21.654521</ele>
        <time>2021-05-26T18:59:38.002Z</time>
      </trkpt>
      <trkpt lat="50.51039" lon="3.49338">
        <ele>21.483003</ele>
        <time>2021-05-26T18:59:42.717Z</time>
      </trkpt>
      <trkpt lat="50.51048" lon="3.49357">
        <ele>21.408373</ele>
        <time>2021-05-26T18:59:44.845Z</time>
      </trkpt>
      <trkpt lat="50.51121" lon="3.49492">
        <ele>21.741305</ele>
        <time>2021-05-26T19:00:02.723Z</time>
      </trkpt>
      <trkpt lat="50.51187" lon="3.49526">
        <ele>22.17934</ele>
        <time>2021-05-26T19:00:15.779Z</time>
      </trkpt>
      <trkpt lat="50.51219" lon="3.4955">
        <ele>22.404957</ele>
        <time>2021-05-26T19:00:22.369Z</time>
      </trkpt>
      <trkpt lat="50.51269" lon="3.49574">
        <ele>22.813512</ele>
        <time>2021-05-26T19:00:32.137Z</time>
      </trkpt>
      <trkpt lat="50.51271" lon="3.4958">
        <ele>22.8499</ele>
        <time>2021-05-26T19:00:33.015Z</time>
      </trkpt>
      <trkpt lat="50.51281" lon="3.49649">
        <ele>23.201333</ele>
        <time>2021-05-26T19:00:41.110Z</time>
      </trkpt>
      <trkpt lat="50.51284" lon="3.49655">
        <ele>23.236244</ele>
        <time>2021-05-26T19:00:41.943Z</time>
      </trkpt>
      <trkpt lat="50.5129" lon="3.49667">
        <ele>23.317899</ele>
        <time>2021-05-26T19:00:43.831Z</time>
      </trkpt>
      <trkpt lat="50.51308" lon="3.49699">
        <ele>23.527165</ele>
        <time>2021-05-26T19:00:48.528Z</time>
      </trkpt>
      <trkpt lat="50.51322" lon="3.49739">
        <ele>23.751292</ele>
        <time>2021-05-26T19:00:53.606Z</time>
      </trkpt>
      <trkpt lat="50.51323" lon="3.49797">
        <ele>23.961916</ele>
        <time>2021-05-26T19:00:59.846Z</time>
      </trkpt>
      <trkpt lat="50.51322" lon="3.49943">
        <ele>24.474891</ele>
        <time>2021-05-26T19:01:15.381Z</time>
      </trkpt>
      <trkpt lat="50.51329" lon="3.49959">
        <ele>24.540366</ele>
        <time>2021-05-26T19:01:17.413Z</time>
      </trkpt>
      <trkpt lat="50.51349" lon="3.49997">
        <ele>24.717106</ele>
        <time>2021-05-26T19:01:22.841Z</time>
      </trkpt>
      <trkpt lat="50.51361" lon="3.50011">
        <ele>24.800416</ele>
        <time>2021-05-26T19:01:25.504Z</time>
      </trkpt>
      <trkpt lat="50.51365" lon="3.50016">
        <ele>24.831995</ele>
        <time>2021-05-26T19:01:26.468Z</time>
      </trkpt>
      <trkpt lat="50.51388" lon="3.50031">
        <ele>24.975391</ele>
        <time>2021-05-26T19:01:30.834Z</time>
      </trkpt>
      <trkpt lat="50.51403" lon="3.50027">
        <ele>25.064776</ele>
        <time>2021-05-26T19:01:34.401Z</time>
      </trkpt>
      <trkpt lat="50.51493" lon="3.50033">
        <ele>25.59294</ele>
        <time>2021-05-26T19:01:54.810Z</time>
      </trkpt>
      <trkpt lat="50.51534" lon="3.50031">
        <ele>25.830757</ele>
        <time>2021-05-26T19:02:03.962Z</time>
      </trkpt>
      <trkpt lat="50.51614" lon="3.4998">
        <ele>26.145235</ele>
        <time>2021-05-26T19:02:22.408Z</time>
      </trkpt>
      <trkpt lat="50.51651" lon="3.49965">
        <ele>26.282811</ele>
        <time>2021-05-26T19:02:30.728Z</time>
      </trkpt>
      <trkpt lat="50.51651" lon="3.49965">
        <ele>26.282811</ele>
        <time>2021-05-26T19:02:30.737Z</time>
      </trkpt>
      <trkpt lat="50.51668" lon="3.49964">
        <ele>26.347554</ele>
        <time>2021-05-26T19:02:34.550Z</time>
      </trkpt>
      <trkpt lat="50.51683" lon="3.49975">
        <ele>26.407579</ele>
        <time>2021-05-26T19:02:38.043Z</time>
      </trkpt>
      <trkpt lat="50.51701" lon="3.5002">
        <ele>26.559518</ele>
        <time>2021-05-26T19:02:45.248Z</time>
      </trkpt>
      <trkpt lat="50.51699" lon="3.50068">
        <ele>26.73143</ele>
        <time>2021-05-26T19:02:51.814Z</time>
      </trkpt>
      <trkpt lat="50.51699" lon="3.50081">
        <ele>26.775154</ele>
        <time>2021-05-26T19:02:53.670Z</time>
      </trkpt>
      <trkpt lat="50.51703" lon="3.50087">
        <ele>26.806252</ele>
        <time>2021-05-26T19:02:55.009Z</time>
      </trkpt>
      <trkpt lat="50.51737" lon="3.50105">
        <ele>27.009301</ele>
        <time>2021-05-26T19:03:03.113Z</time>
      </trkpt>
      <trkpt lat="50.51831" lon="3.50116">
        <ele>27.572344</ele>
        <time>2021-05-26T19:03:24.676Z</time>
      </trkpt>
      <trkpt lat="50.51919" lon="3.50084">
        <ele>28.442791</ele>
        <time>2021-05-26T19:03:46.138Z</time>
      </trkpt>
      <trkpt lat="50.51944" lon="3.50099">
        <ele>28.695019</ele>
        <time>2021-05-26T19:03:52.253Z</time>
      </trkpt>
      <trkpt lat="50.5195" lon="3.50108">
        <ele>28.777081</ele>
        <time>2021-05-26T19:03:54.437Z</time>
      </trkpt>
      <trkpt lat="50.51998" lon="3.50182">
        <ele>29.536901</ele>
        <time>2021-05-26T19:04:11.194Z</time>
      </trkpt>
      <trkpt lat="50.5208" lon="3.5027">
        <ele>31.029051</ele>
        <time>2021-05-26T19:04:37.429Z</time>
      </trkpt>
      <trkpt lat="50.5212" lon="3.50308">
        <ele>31.73909</ele>
        <time>2021-05-26T19:04:50.184Z</time>
      </trkpt>
      <trkpt lat="50.524" lon="3.49201">
        <ele>41.374903</ele>
        <time>2021-05-26T19:07:25.446Z</time>
      </trkpt>
      <trkpt lat="50.52437" lon="3.49238">
        <ele>40.840604</ele>
        <time>2021-05-26T19:07:30.397Z</time>
      </trkpt>
      <trkpt lat="50.52468" lon="3.49266">
        <ele>40.397581</ele>
        <time>2021-05-26T19:07:34.386Z</time>
      </trkpt>
      <trkpt lat="50.5252" lon="3.49298">
        <ele>39.696651</ele>
        <time>2021-05-26T19:07:40.507Z</time>
      </trkpt>
      <trkpt lat="50.52606" lon="3.49393">
        <ele>38.303492</ele>
        <time>2021-05-26T19:07:52.029Z</time>
      </trkpt>
      <trkpt lat="50.52627" lon="3.49401">
        <ele>38.010591</ele>
        <time>2021-05-26T19:07:54.656Z</time>
      </trkpt>
      <trkpt lat="50.52677" lon="3.49452">
        <ele>37.20733</ele>
        <time>2021-05-26T19:08:02.109Z</time>
      </trkpt>
      <trkpt lat="50.52712" lon="3.49529">
        <ele>37.045108</ele>
        <time>2021-05-26T19:08:10.251Z</time>
      </trkpt>
      <trkpt lat="50.52714" lon="3.49533">
        <ele>37.045408</ele>
        <time>2021-05-26T19:08:10.635Z</time>
      </trkpt>
      <trkpt lat="50.52721" lon="3.49559">
        <ele>37.047195</ele>
        <time>2021-05-26T19:08:13.381Z</time>
      </trkpt>
      <trkpt lat="50.5273" lon="3.49651">
        <ele>37.052889</ele>
        <time>2021-05-26T19:08:22.293Z</time>
      </trkpt>
      <trkpt lat="50.52741" lon="3.4971">
        <ele>37.056632</ele>
        <time>2021-05-26T19:08:28.539Z</time>
      </trkpt>
      <trkpt lat="50.52782" lon="3.49813">
        <ele>37.847073</ele>
        <time>2021-05-26T19:08:42.170Z</time>
      </trkpt>
      <trkpt lat="50.52816" lon="3.49901">
        <ele>38.651032</ele>
        <time>2021-05-26T19:08:54.786Z</time>
      </trkpt>
      <trkpt lat="50.52823" lon="3.49916">
        <ele>38.795727</ele>
        <time>2021-05-26T19:08:57.185Z</time>
      </trkpt>
      <trkpt lat="50.52862" lon="3.50053">
        <ele>40.641198</ele>
        <time>2021-05-26T19:09:19.985Z</time>
      </trkpt>
      <trkpt lat="50.52877" lon="3.50086">
        <ele>41.27051</ele>
        <time>2021-05-26T19:09:27.013Z</time>
      </trkpt>
      <trkpt lat="50.52899" lon="3.50114">
        <ele>41.948533</ele>
        <time>2021-05-26T19:09:34.529Z</time>
      </trkpt>
      <trkpt lat="50.52947" lon="3.5016">
        <ele>43.296521</ele>
        <time>2021-05-26T19:09:48.068Z</time>
      </trkpt>
      <trkpt lat="50.52955" lon="3.50169">
        <ele>43.532671</ele>
        <time>2021-05-26T19:09:50.700Z</time>
      </trkpt>
      <trkpt lat="50.52963" lon="3.50179">
        <ele>43.662346</ele>
        <time>2021-05-26T19:09:52.946Z</time>
      </trkpt>
      <trkpt lat="50.52993" lon="3.50234">
        <ele>44.126282</ele>
        <time>2021-05-26T19:10:03.156Z</time>
      </trkpt>
      <trkpt lat="50.53005" lon="3.50257">
        <ele>44.310147</ele>
        <time>2021-05-26T19:10:08.359Z</time>
      </trkpt>
      <trkpt lat="50.53009" lon="3.50267">
        <ele>44.388739</ele>
        <time>2021-05-26T19:10:10.428Z</time>
      </trkpt>
      <trkpt lat="50.53014" lon="3.50277">
        <ele>44.466816</ele>
        <time>2021-05-26T19:10:12.264Z</time>
      </trkpt>
      <trkpt lat="50.53063" lon="3.50413">
        <ele>45.296355</ele>
        <time>2021-05-26T19:10:34.257Z</time>
      </trkpt>
      <trkpt lat="50.53077" lon="3.50493">
        <ele>44.676445</ele>
        <time>2021-05-26T19:10:43.555Z</time>
      </trkpt>
      <trkpt lat="50.53061" lon="3.50585">
        <ele>43.970137</ele>
        <time>2021-05-26T19:10:53.829Z</time>
      </trkpt>
      <trkpt lat="50.53015" lon="3.50751">
        <ele>41.90377</ele>
        <time>2021-05-26T19:11:12.047Z</time>
      </trkpt>
      <trkpt lat="50.52998" lon="3.50805">
        <ele>40.977767</ele>
        <time>2021-05-26T19:11:17.765Z</time>
      </trkpt>
      <trkpt lat="50.52998" lon="3.50805">
        <ele>40.977767</ele>
        <time>2021-05-26T19:11:17.780Z</time>
      </trkpt>
      <trkpt lat="50.52998" lon="3.50805">
        <ele>40.977767</ele>
        <time>2021-05-26T19:11:17.924Z</time>
      </trkpt>
      <trkpt lat="50.53029" lon="3.50839">
        <ele>40.050456</ele>
        <time>2021-05-26T19:11:44.312Z</time>
      </trkpt>
      <trkpt lat="50.52991" lon="3.50936">
        <ele>38.457206</ele>
        <time>2021-05-26T19:11:55.106Z</time>
      </trkpt>
      <trkpt lat="50.52991" lon="3.50936">
        <ele>38.454358</ele>
        <time>2021-05-26T19:11:55.130Z</time>
      </trkpt>
      <trkpt lat="50.52946" lon="3.51037">
        <ele>37.081947</ele>
        <time>2021-05-26T19:12:07.361Z</time>
      </trkpt>
      <trkpt lat="50.52934" lon="3.5106">
        <ele>36.742122</ele>
        <time>2021-05-26T19:12:10.569Z</time>
      </trkpt>
      <trkpt lat="50.52856" lon="3.51209">
        <ele>35.63645</ele>
        <time>2021-05-26T19:12:32.532Z</time>
      </trkpt>
      <trkpt lat="50.5282" lon="3.51277">
        <ele>35.560855</ele>
        <time>2021-05-26T19:12:45.316Z</time>
      </trkpt>
      <trkpt lat="50.52814" lon="3.51288">
        <ele>35.548477</ele>
        <time>2021-05-26T19:12:47.292Z</time>
      </trkpt>
      <trkpt lat="50.52774" lon="3.51363">
        <ele>35.430939</ele>
        <time>2021-05-26T19:12:59.790Z</time>
      </trkpt>
      <trkpt lat="50.52729" lon="3.51449">
        <ele>35.152594</ele>
        <time>2021-05-26T19:13:13.537Z</time>
      </trkpt>
      <trkpt lat="50.5277" lon="3.51505">
        <ele>34.938681</ele>
        <time>2021-05-26T19:13:23.883Z</time>
      </trkpt>
      <trkpt lat="50.52783" lon="3.5152">
        <ele>34.877269</ele>
        <time>2021-05-26T19:13:26.764Z</time>
      </trkpt>
      <trkpt lat="50.52822" lon="3.51588">
        <ele>34.601539</ele>
        <time>2021-05-26T19:13:37.117Z</time>
      </trkpt>
      <trkpt lat="50.5284" lon="3.51629">
        <ele>34.436808</ele>
        <time>2021-05-26T19:13:42.432Z</time>
      </trkpt>
      <trkpt lat="50.52842" lon="3.51636">
        <ele>34.411574</ele>
        <time>2021-05-26T19:13:43.236Z</time>
      </trkpt>
      <trkpt lat="50.52867" lon="3.51709">
        <ele>34.132792</ele>
        <time>2021-05-26T19:13:52.757Z</time>
      </trkpt>
      <trkpt lat="50.52879" lon="3.51748">
        <ele>33.989775</ele>
        <time>2021-05-26T19:13:58.445Z</time>
      </trkpt>
      <trkpt lat="50.52908" lon="3.518">
        <ele>33.85689</ele>
        <time>2021-05-26T19:14:07.584Z</time>
      </trkpt>
      <trkpt lat="50.52924" lon="3.51854">
        <ele>33.94185</ele>
        <time>2021-05-26T19:14:15.655Z</time>
      </trkpt>
      <trkpt lat="50.52925" lon="3.51854">
        <ele>33.942817</ele>
        <time>2021-05-26T19:14:15.765Z</time>
      </trkpt>
      <trkpt lat="50.52951" lon="3.51909">
        <ele>34.040489</ele>
        <time>2021-05-26T19:14:25.269Z</time>
      </trkpt>
      <trkpt lat="50.52963" lon="3.51899">
        <ele>34.070633</ele>
        <time>2021-05-26T19:14:28.358Z</time>
      </trkpt>
      <trkpt lat="50.53017" lon="3.51852">
        <ele>34.210216</ele>
        <time>2021-05-26T19:14:41.370Z</time>
      </trkpt>
      <trkpt lat="50.5304" lon="3.51833">
        <ele>34.187163</ele>
        <time>2021-05-26T19:14:46.407Z</time>
      </trkpt>
      <trkpt lat="50.5305" lon="3.5183">
        <ele>34.158996</ele>
        <time>2021-05-26T19:14:48.653Z</time>
      </trkpt>
      <trkpt lat="50.53058" lon="3.51826">
        <ele>34.137027</ele>
        <time>2021-05-26T19:14:50.379Z</time>
      </trkpt>
      <trkpt lat="50.53075" lon="3.51882">
        <ele>34.033308</ele>
        <time>2021-05-26T19:14:58.341Z</time>
      </trkpt>
      <trkpt lat="50.53076" lon="3.51886">
        <ele>34.02663</ele>
        <time>2021-05-26T19:14:58.829Z</time>
      </trkpt>
      <trkpt lat="50.53083" lon="3.51907">
        <ele>33.986064</ele>
        <time>2021-05-26T19:15:01.875Z</time>
      </trkpt>
      <trkpt lat="50.53085" lon="3.51914">
        <ele>33.973575</ele>
        <time>2021-05-26T19:15:02.834Z</time>
      </trkpt>
      <trkpt lat="50.5309" lon="3.51932">
        <ele>33.940886</ele>
        <time>2021-05-26T19:15:05.179Z</time>
      </trkpt>
      <trkpt lat="50.5309" lon="3.51933">
        <ele>33.93832</ele>
        <time>2021-05-26T19:15:05.349Z</time>
      </trkpt>
      <trkpt lat="50.53098" lon="3.51957">
        <ele>33.893911</ele>
        <time>2021-05-26T19:15:08.547Z</time>
      </trkpt>
      <trkpt lat="50.53098" lon="3.5196">
        <ele>33.889908</ele>
        <time>2021-05-26T19:15:08.835Z</time>
      </trkpt>
      <trkpt lat="50.53109" lon="3.51998">
        <ele>33.819643</ele>
        <time>2021-05-26T19:15:13.643Z</time>
      </trkpt>
      <trkpt lat="50.53079" lon="3.52013">
        <ele>33.740128</ele>
        <time>2021-05-26T19:15:19.280Z</time>
      </trkpt>
      <trkpt lat="50.5306" lon="3.5203">
        <ele>33.691545</ele>
        <time>2021-05-26T19:15:23.437Z</time>
      </trkpt>
      <trkpt lat="50.53034" lon="3.52074">
        <ele>33.606279</ele>
        <time>2021-05-26T19:15:30.583Z</time>
      </trkpt>
      <trkpt lat="50.53028" lon="3.52082">
        <ele>33.588747</ele>
        <time>2021-05-26T19:15:31.968Z</time>
      </trkpt>
      <trkpt lat="50.53017" lon="3.52125">
        <ele>33.524437</ele>
        <time>2021-05-26T19:15:37.775Z</time>
      </trkpt>
      <trkpt lat="50.5301" lon="3.52137">
        <ele>33.501634</ele>
        <time>2021-05-26T19:15:39.664Z</time>
      </trkpt>
      <trkpt lat="50.53006" lon="3.5217">
        <ele>33.454725</ele>
        <time>2021-05-26T19:15:44.386Z</time>
      </trkpt>
      <trkpt lat="50.53002" lon="3.5219">
        <ele>33.425903</ele>
        <time>2021-05-26T19:15:46.967Z</time>
      </trkpt>
      <trkpt lat="50.53004" lon="3.52202">
        <ele>33.407777</ele>
        <time>2021-05-26T19:15:48.870Z</time>
      </trkpt>
      <trkpt lat="50.53017" lon="3.52251">
        <ele>33.374131</ele>
        <time>2021-05-26T19:15:55.802Z</time>
      </trkpt>
      <trkpt lat="50.53069" lon="3.52383">
        <ele>33.482559</ele>
        <time>2021-05-26T19:16:16.331Z</time>
      </trkpt>
      <trkpt lat="50.53075" lon="3.524">
        <ele>33.496268</ele>
        <time>2021-05-26T19:16:19.080Z</time>
      </trkpt>
      <trkpt lat="50.53087" lon="3.52472">
        <ele>33.548138</ele>
        <time>2021-05-26T19:16:28.978Z</time>
      </trkpt>
      <trkpt lat="50.53017" lon="3.52536">
        <ele>33.468647</ele>
        <time>2021-05-26T19:16:45.091Z</time>
      </trkpt>
      <trkpt lat="50.53011" lon="3.52541">
        <ele>33.460149</ele>
        <time>2021-05-26T19:16:46.382Z</time>
      </trkpt>
      <trkpt lat="50.52973" lon="3.52579">
        <ele>33.403798</ele>
        <time>2021-05-26T19:16:54.987Z</time>
      </trkpt>
      <trkpt lat="50.5297" lon="3.52582">
        <ele>33.399823</ele>
        <time>2021-05-26T19:16:55.598Z</time>
      </trkpt>
      <trkpt lat="50.53039" lon="3.52801">
        <ele>33.437646</ele>
        <time>2021-05-26T19:17:26.382Z</time>
      </trkpt>
      <trkpt lat="50.53055" lon="3.5285">
        <ele>33.472802</ele>
        <time>2021-05-26T19:17:33.886Z</time>
      </trkpt>
      <trkpt lat="50.53059" lon="3.5286">
        <ele>33.480479</ele>
        <time>2021-05-26T19:17:35.588Z</time>
      </trkpt>
      <trkpt lat="50.53069" lon="3.52893">
        <ele>33.504114</ele>
        <time>2021-05-26T19:17:40.672Z</time>
      </trkpt>
      <trkpt lat="50.53077" lon="3.52917">
        <ele>33.55329</ele>
        <time>2021-05-26T19:17:44.406Z</time>
      </trkpt>
      <trkpt lat="50.53094" lon="3.52967">
        <ele>33.789515</ele>
        <time>2021-05-26T19:17:52.588Z</time>
      </trkpt>
      <trkpt lat="50.53181" lon="3.53222">
        <ele>35.036198</ele>
        <time>2021-05-26T19:18:35.083Z</time>
      </trkpt>
      <trkpt lat="50.53338" lon="3.536">
        <ele>37.197672</ele>
        <time>2021-05-26T19:19:42.408Z</time>
      </trkpt>
      <trkpt lat="50.53363" lon="3.53717">
        <ele>37.589362</ele>
        <time>2021-05-26T19:19:59.832Z</time>
      </trkpt>
      <trkpt lat="50.5338" lon="3.53948">
        <ele>38.169586</ele>
        <time>2021-05-26T19:20:31.547Z</time>
      </trkpt>
      <trkpt lat="50.53424" lon="3.54177">
        <ele>38.92307</ele>
        <time>2021-05-26T19:21:05.427Z</time>
      </trkpt>
      <trkpt lat="50.53452" lon="3.54235">
        <ele>39.348262</ele>
        <time>2021-05-26T19:21:16.261Z</time>
      </trkpt>
      <trkpt lat="50.53466" lon="3.54251">
        <ele>39.519322</ele>
        <time>2021-05-26T19:21:20.310Z</time>
      </trkpt>
      <trkpt lat="50.53569" lon="3.54336">
        <ele>40.687696</ele>
        <time>2021-05-26T19:21:48.764Z</time>
      </trkpt>
      <trkpt lat="50.53683" lon="3.5442">
        <ele>42.484636</ele>
        <time>2021-05-26T19:22:20.876Z</time>
      </trkpt>
      <trkpt lat="50.53702" lon="3.54414">
        <ele>42.766768</ele>
        <time>2021-05-26T19:22:26.004Z</time>
      </trkpt>
      <trkpt lat="50.53806" lon="3.54383">
        <ele>44.466404</ele>
        <time>2021-05-26T19:22:55.293Z</time>
      </trkpt>
      <trkpt lat="50.53932" lon="3.54346">
        <ele>46.55556</ele>
        <time>2021-05-26T19:23:30.331Z</time>
      </trkpt>
      <trkpt lat="50.53958" lon="3.54335">
        <ele>46.732658</ele>
        <time>2021-05-26T19:23:37.063Z</time>
      </trkpt>
      <trkpt lat="50.53985" lon="3.54339">
        <ele>46.914111</ele>
        <time>2021-05-26T19:23:43.838Z</time>
      </trkpt>
      <trkpt lat="50.54011" lon="3.54358">
        <ele>47.103641</ele>
        <time>2021-05-26T19:23:50.642Z</time>
      </trkpt>
      <trkpt lat="50.54093" lon="3.54426">
        <ele>47.629041</ele>
        <time>2021-05-26T19:24:09.805Z</time>
      </trkpt>
      <trkpt lat="50.54113" lon="3.54448">
        <ele>47.472036</ele>
        <time>2021-05-26T19:24:14.468Z</time>
      </trkpt>
      <trkpt lat="50.54133" lon="3.54488">
        <ele>47.266423</ele>
        <time>2021-05-26T19:24:20.459Z</time>
      </trkpt>
      <trkpt lat="50.54138" lon="3.54508">
        <ele>47.180569</ele>
        <time>2021-05-26T19:24:22.857Z</time>
      </trkpt>
      <trkpt lat="50.54141" lon="3.5453">
        <ele>47.087108</ele>
        <time>2021-05-26T19:24:25.429Z</time>
      </trkpt>
      <trkpt lat="50.54148" lon="3.54582">
        <ele>46.872288</ele>
        <time>2021-05-26T19:24:31.419Z</time>
      </trkpt>
      <trkpt lat="50.54183" lon="3.54702">
        <ele>46.308935</ele>
        <time>2021-05-26T19:24:46.211Z</time>
      </trkpt>
      <trkpt lat="50.54189" lon="3.54724">
        <ele>46.19499</ele>
        <time>2021-05-26T19:24:48.796Z</time>
      </trkpt>
      <trkpt lat="50.5425" lon="3.54789">
        <ele>45.652172</ele>
        <time>2021-05-26T19:24:58.070Z</time>
      </trkpt>
      <trkpt lat="50.54293" lon="3.54836">
        <ele>45.262047</ele>
        <time>2021-05-26T19:25:05.110Z</time>
      </trkpt>
      <trkpt lat="50.54316" lon="3.54851">
        <ele>45.076665</ele>
        <time>2021-05-26T19:25:08.378Z</time>
      </trkpt>
      <trkpt lat="50.54348" lon="3.54866">
        <ele>44.839147</ele>
        <time>2021-05-26T19:25:12.784Z</time>
      </trkpt>
      <trkpt lat="50.54428" lon="3.54902">
        <ele>44.254704</ele>
        <time>2021-05-26T19:25:23.393Z</time>
      </trkpt>
      <trkpt lat="50.54492" lon="3.54932">
        <ele>43.680925</ele>
        <time>2021-05-26T19:25:31.864Z</time>
      </trkpt>
      <trkpt lat="50.54548" lon="3.54956">
        <ele>42.990397</ele>
        <time>2021-05-26T19:25:38.758Z</time>
      </trkpt>
      <trkpt lat="50.54611" lon="3.54994">
        <ele>42.188083</ele>
        <time>2021-05-26T19:25:46.492Z</time>
      </trkpt>
      <trkpt lat="50.54639" lon="3.55029">
        <ele>41.764561</ele>
        <time>2021-05-26T19:25:50.735Z</time>
      </trkpt>
      <trkpt lat="50.54665" lon="3.55052">
        <ele>41.648734</ele>
        <time>2021-05-26T19:25:54.327Z</time>
      </trkpt>
      <trkpt lat="50.54689" lon="3.55072">
        <ele>41.539867</ele>
        <time>2021-05-26T19:25:57.758Z</time>
      </trkpt>
      <trkpt lat="50.54693" lon="3.55074">
        <ele>41.524102</ele>
        <time>2021-05-26T19:25:58.287Z</time>
      </trkpt>
      <trkpt lat="50.54849" lon="3.5518">
        <ele>41.425543</ele>
        <time>2021-05-26T19:26:23.073Z</time>
      </trkpt>
      <trkpt lat="50.54865" lon="3.55191">
        <ele>41.54986</ele>
        <time>2021-05-26T19:26:26.340Z</time>
      </trkpt>
      <trkpt lat="50.55001" lon="3.55282">
        <ele>42.535045</ele>
        <time>2021-05-26T19:26:55.003Z</time>
      </trkpt>
      <trkpt lat="50.55094" lon="3.55255">
        <ele>43.075124</ele>
        <time>2021-05-26T19:27:11.072Z</time>
      </trkpt>
      <trkpt lat="50.55108" lon="3.55228">
        <ele>43.199294</ele>
        <time>2021-05-26T19:27:14.394Z</time>
      </trkpt>
      <trkpt lat="50.55145" lon="3.55144">
        <ele>43.190111</ele>
        <time>2021-05-26T19:27:24.679Z</time>
      </trkpt>
      <trkpt lat="50.55157" lon="3.55116">
        <ele>43.103801</ele>
        <time>2021-05-26T19:27:27.859Z</time>
      </trkpt>
      <trkpt lat="50.55191" lon="3.55031">
        <ele>42.846807</ele>
        <time>2021-05-26T19:27:35.920Z</time>
      </trkpt>
      <trkpt lat="50.55207" lon="3.54961">
        <ele>42.656227</ele>
        <time>2021-05-26T19:27:41.938Z</time>
      </trkpt>
      <trkpt lat="50.55364" lon="3.54813">
        <ele>41.812026</ele>
        <time>2021-05-26T19:28:15.767Z</time>
      </trkpt>
      <trkpt lat="50.554" lon="3.54809">
        <ele>41.84092</ele>
        <time>2021-05-26T19:28:22.814Z</time>
      </trkpt>
      <trkpt lat="50.55581" lon="3.54823">
        <ele>42.232091</ele>
        <time>2021-05-26T19:29:01.895Z</time>
      </trkpt>
      <trkpt lat="50.55629" lon="3.54826">
        <ele>42.42437</ele>
        <time>2021-05-26T19:29:12.430Z</time>
      </trkpt>
      <trkpt lat="50.55713" lon="3.54836">
        <ele>42.764381</ele>
        <time>2021-05-26T19:29:30.864Z</time>
      </trkpt>
      <trkpt lat="50.55828" lon="3.54903">
        <ele>43.286445</ele>
        <time>2021-05-26T19:29:57.572Z</time>
      </trkpt>
      <trkpt lat="50.55854" lon="3.54922">
        <ele>43.407335</ele>
        <time>2021-05-26T19:30:03.869Z</time>
      </trkpt>
      <trkpt lat="50.55835" lon="3.5502">
        <ele>43.779978</ele>
        <time>2021-05-26T19:30:14.967Z</time>
      </trkpt>
      <trkpt lat="50.55832" lon="3.55038">
        <ele>43.883161</ele>
        <time>2021-05-26T19:30:16.958Z</time>
      </trkpt>
      <trkpt lat="50.55849" lon="3.55047">
        <ele>44.039909</ele>
        <time>2021-05-26T19:30:20.250Z</time>
      </trkpt>
      <trkpt lat="50.55924" lon="3.55082">
        <ele>44.713808</ele>
        <time>2021-05-26T19:30:34.528Z</time>
      </trkpt>
      <trkpt lat="50.55942" lon="3.55091">
        <ele>44.877332</ele>
        <time>2021-05-26T19:30:38.128Z</time>
      </trkpt>
      <trkpt lat="50.56001" lon="3.55119">
        <ele>45.516584</ele>
        <time>2021-05-26T19:30:49.982Z</time>
      </trkpt>
      <trkpt lat="50.56022" lon="3.55129">
        <ele>45.794314</ele>
        <time>2021-05-26T19:30:54.324Z</time>
      </trkpt>
      <trkpt lat="50.56062" lon="3.55154">
        <ele>46.317841</ele>
        <time>2021-05-26T19:31:02.497Z</time>
      </trkpt>
      <trkpt lat="50.56071" lon="3.5516">
        <ele>46.428642</ele>
        <time>2021-05-26T19:31:04.626Z</time>
      </trkpt>
      <trkpt lat="50.56094" lon="3.55172">
        <ele>46.731696</ele>
        <time>2021-05-26T19:31:09.331Z</time>
      </trkpt>
      <trkpt lat="50.56116" lon="3.55181">
        <ele>47.013994</ele>
        <time>2021-05-26T19:31:14.236Z</time>
      </trkpt>
      <trkpt lat="50.56152" lon="3.55189">
        <ele>47.468174</ele>
        <time>2021-05-26T19:31:21.610Z</time>
      </trkpt>
      <trkpt lat="50.56166" lon="3.55201">
        <ele>47.684244</ele>
        <time>2021-05-26T19:31:24.719Z</time>
      </trkpt>
      <trkpt lat="50.56169" lon="3.55205">
        <ele>47.74171</ele>
        <time>2021-05-26T19:31:25.759Z</time>
      </trkpt>
      <trkpt lat="50.56182" lon="3.55226">
        <ele>47.993268</ele>
        <time>2021-05-26T19:31:29.388Z</time>
      </trkpt>
      <trkpt lat="50.56189" lon="3.55238">
        <ele>48.140548</ele>
        <time>2021-05-26T19:31:31.381Z</time>
      </trkpt>
      <trkpt lat="50.56196" lon="3.55248">
        <ele>48.261769</ele>
        <time>2021-05-26T19:31:33.525Z</time>
      </trkpt>
      <trkpt lat="50.56242" lon="3.55321">
        <ele>49.153149</ele>
        <time>2021-05-26T19:31:46.324Z</time>
      </trkpt>
      <trkpt lat="50.56313" lon="3.5538">
        <ele>50.209943</ele>
        <time>2021-05-26T19:32:03.170Z</time>
      </trkpt>
      <trkpt lat="50.56383" lon="3.5546">
        <ele>51.280242</ele>
        <time>2021-05-26T19:32:20.307Z</time>
      </trkpt>
      <trkpt lat="50.56412" lon="3.55503">
        <ele>51.77263</ele>
        <time>2021-05-26T19:32:27.935Z</time>
      </trkpt>
      <trkpt lat="50.5642" lon="3.55515">
        <ele>51.905348</ele>
        <time>2021-05-26T19:32:30.003Z</time>
      </trkpt>
      <trkpt lat="50.56456" lon="3.5558">
        <ele>52.561861</ele>
        <time>2021-05-26T19:32:40.632Z</time>
      </trkpt>
      <trkpt lat="50.56499" lon="3.55673">
        <ele>53.438167</ele>
        <time>2021-05-26T19:32:55.012Z</time>
      </trkpt>
      <trkpt lat="50.56514" lon="3.55707">
        <ele>53.749307</ele>
        <time>2021-05-26T19:33:00.056Z</time>
      </trkpt>
      <trkpt lat="50.56547" lon="3.55782">
        <ele>54.418181</ele>
        <time>2021-05-26T19:33:11.638Z</time>
      </trkpt>
      <trkpt lat="50.56564" lon="3.55809">
        <ele>54.685461</ele>
        <time>2021-05-26T19:33:16.477Z</time>
      </trkpt>
      <trkpt lat="50.56603" lon="3.55849">
        <ele>55.200966</ele>
        <time>2021-05-26T19:33:25.855Z</time>
      </trkpt>
      <trkpt lat="50.56653" lon="3.55885">
        <ele>55.815121</ele>
        <time>2021-05-26T19:33:36.516Z</time>
      </trkpt>
      <trkpt lat="50.56668" lon="3.55909">
        <ele>56.050551</ele>
        <time>2021-05-26T19:33:40.309Z</time>
      </trkpt>
      <trkpt lat="50.5672" lon="3.55948">
        <ele>56.570975</ele>
        <time>2021-05-26T19:33:50.212Z</time>
      </trkpt>
      <trkpt lat="50.56752" lon="3.5596">
        <ele>56.849759</ele>
        <time>2021-05-26T19:33:56.173Z</time>
      </trkpt>
      <trkpt lat="50.56801" lon="3.55992">
        <ele>57.306287</ele>
        <time>2021-05-26T19:34:05.929Z</time>
      </trkpt>
      <trkpt lat="50.56844" lon="3.56019">
        <ele>57.706901</ele>
        <time>2021-05-26T19:34:14.313Z</time>
      </trkpt>
      <trkpt lat="50.5687" lon="3.56039">
        <ele>58.167316</ele>
        <time>2021-05-26T19:34:20.031Z</time>
      </trkpt>
      <trkpt lat="50.5692" lon="3.56103">
        <ele>59.186244</ele>
        <time>2021-05-26T19:34:33.105Z</time>
      </trkpt>
      <trkpt lat="50.5703" lon="3.56333">
        <ele>62.572325</ele>
        <time>2021-05-26T19:35:15.091Z</time>
      </trkpt>
      <trkpt lat="50.57042" lon="3.56362">
        <ele>63.030872</ele>
        <time>2021-05-26T19:35:20.271Z</time>
      </trkpt>
      <trkpt lat="50.57052" lon="3.56466">
        <ele>64.403939</ele>
        <time>2021-05-26T19:35:36.222Z</time>
      </trkpt>
      <trkpt lat="50.57081" lon="3.56548">
        <ele>65.24708</ele>
        <time>2021-05-26T19:35:49.782Z</time>
      </trkpt>
      <trkpt lat="50.57116" lon="3.56609">
        <ele>65.982922</ele>
        <time>2021-05-26T19:36:00.776Z</time>
      </trkpt>
      <trkpt lat="50.57163" lon="3.5671">
        <ele>66.831446</ele>
        <time>2021-05-26T19:36:15.071Z</time>
      </trkpt>
      <trkpt lat="50.57171" lon="3.56728">
        <ele>66.792354</ele>
        <time>2021-05-26T19:36:17.341Z</time>
      </trkpt>
      <trkpt lat="50.57194" lon="3.56777">
        <ele>66.686045</ele>
        <time>2021-05-26T19:36:23.352Z</time>
      </trkpt>
      <trkpt lat="50.57274" lon="3.56941">
        <ele>66.161013</ele>
        <time>2021-05-26T19:36:40.115Z</time>
      </trkpt>
      <trkpt lat="50.57361" lon="3.57103">
        <ele>64.674368</ele>
        <time>2021-05-26T19:36:56.384Z</time>
      </trkpt>
      <trkpt lat="50.57365" lon="3.57123">
        <ele>64.530602</ele>
        <time>2021-05-26T19:36:57.952Z</time>
      </trkpt>
      <trkpt lat="50.57352" lon="3.57194">
        <ele>63.859349</ele>
        <time>2021-05-26T19:37:03.452Z</time>
      </trkpt>
      <trkpt lat="50.57353" lon="3.57203">
        <ele>63.764229</ele>
        <time>2021-05-26T19:37:04.146Z</time>
      </trkpt>
      <trkpt lat="50.57358" lon="3.57216">
        <ele>63.622356</ele>
        <time>2021-05-26T19:37:05.169Z</time>
      </trkpt>
      <trkpt lat="50.57397" lon="3.57303">
        <ele>62.563029</ele>
        <time>2021-05-26T19:37:13.029Z</time>
      </trkpt>
      <trkpt lat="50.57426" lon="3.57372">
        <ele>61.756292</ele>
        <time>2021-05-26T19:37:18.944Z</time>
      </trkpt>
      <trkpt lat="50.57491" lon="3.57526">
        <ele>59.886382</ele>
        <time>2021-05-26T19:37:32.217Z</time>
      </trkpt>
      <trkpt lat="50.57515" lon="3.57585">
        <ele>59.171432</ele>
        <time>2021-05-26T19:37:37.330Z</time>
      </trkpt>
      <trkpt lat="50.57556" lon="3.5766">
        <ele>58.295078</ele>
        <time>2021-05-26T19:37:44.548Z</time>
      </trkpt>
      <trkpt lat="50.57617" lon="3.57836">
        <ele>56.681351</ele>
        <time>2021-05-26T19:37:59.707Z</time>
      </trkpt>
      <trkpt lat="50.57662" lon="3.57976">
        <ele>55.811957</ele>
        <time>2021-05-26T19:38:11.965Z</time>
      </trkpt>
      <trkpt lat="50.57741" lon="3.58219">
        <ele>54.889165</ele>
        <time>2021-05-26T19:38:34.796Z</time>
      </trkpt>
      <trkpt lat="50.57734" lon="3.58307">
        <ele>54.774546</ele>
        <time>2021-05-26T19:38:43.007Z</time>
      </trkpt>
      <trkpt lat="50.57736" lon="3.58316">
        <ele>54.761955</ele>
        <time>2021-05-26T19:38:43.770Z</time>
      </trkpt>
      <trkpt lat="50.57739" lon="3.58326">
        <ele>54.747794</ele>
        <time>2021-05-26T19:38:45.123Z</time>
      </trkpt>
      <trkpt lat="50.57744" lon="3.58334">
        <ele>54.732733</ele>
        <time>2021-05-26T19:38:46.226Z</time>
      </trkpt>
      <trkpt lat="50.57878" lon="3.5838">
        <ele>54.932464</ele>
        <time>2021-05-26T19:39:07.743Z</time>
      </trkpt>
      <trkpt lat="50.5792" lon="3.5839">
        <ele>55.029378</ele>
        <time>2021-05-26T19:39:14.118Z</time>
      </trkpt>
      <trkpt lat="50.57971" lon="3.5839">
        <ele>55.205282</ele>
        <time>2021-05-26T19:39:22.569Z</time>
      </trkpt>
      <trkpt lat="50.58055" lon="3.58423">
        <ele>55.611569</ele>
        <time>2021-05-26T19:39:36.769Z</time>
      </trkpt>
      <trkpt lat="50.58071" lon="3.58437">
        <ele>55.695198</ele>
        <time>2021-05-26T19:39:39.385Z</time>
      </trkpt>
      <trkpt lat="50.58073" lon="3.58441">
        <ele>55.711185</ele>
        <time>2021-05-26T19:39:40.481Z</time>
      </trkpt>
      <trkpt lat="50.58092" lon="3.58471">
        <ele>55.837585</ele>
        <time>2021-05-26T19:39:44.901Z</time>
      </trkpt>
      <trkpt lat="50.58105" lon="3.58502">
        <ele>55.971056</ele>
        <time>2021-05-26T19:39:49.289Z</time>
      </trkpt>
      <trkpt lat="50.58119" lon="3.58565">
        <ele>56.464864</ele>
        <time>2021-05-26T19:39:56.776Z</time>
      </trkpt>
      <trkpt lat="50.58141" lon="3.58596">
        <ele>56.817294</ele>
        <time>2021-05-26T19:40:02.587Z</time>
      </trkpt>
      <trkpt lat="50.5817" lon="3.58615">
        <ele>57.174743</ele>
        <time>2021-05-26T19:40:08.932Z</time>
      </trkpt>
      <trkpt lat="50.58187" lon="3.58631">
        <ele>57.409792</ele>
        <time>2021-05-26T19:40:13.263Z</time>
      </trkpt>
      <trkpt lat="50.58217" lon="3.58611">
        <ele>57.790077</ele>
        <time>2021-05-26T19:40:19.780Z</time>
      </trkpt>
      <trkpt lat="50.58232" lon="3.58613">
        <ele>57.96474</ele>
        <time>2021-05-26T19:40:22.579Z</time>
      </trkpt>
      <trkpt lat="50.58237" lon="3.58647">
        <ele>58.215696</ele>
        <time>2021-05-26T19:40:27.292Z</time>
      </trkpt>
      <trkpt lat="50.58241" lon="3.58668">
        <ele>58.367809</ele>
        <time>2021-05-26T19:40:29.831Z</time>
      </trkpt>
      <trkpt lat="50.58247" lon="3.58685">
        <ele>58.511587</ele>
        <time>2021-05-26T19:40:32.474Z</time>
      </trkpt>
      <trkpt lat="50.58259" lon="3.587">
        <ele>58.675553</ele>
        <time>2021-05-26T19:40:35.638Z</time>
      </trkpt>
      <trkpt lat="50.58365" lon="3.58819">
        <ele>60.014582</ele>
        <time>2021-05-26T19:41:00.814Z</time>
      </trkpt>
      <trkpt lat="50.58429" lon="3.58914">
        <ele>59.782003</ele>
        <time>2021-05-26T19:41:14.747Z</time>
      </trkpt>
      <trkpt lat="50.58476" lon="3.58989">
        <ele>59.605668</ele>
        <time>2021-05-26T19:41:23.139Z</time>
      </trkpt>
      <trkpt lat="50.58502" lon="3.59031">
        <ele>59.160947</ele>
        <time>2021-05-26T19:41:27.364Z</time>
      </trkpt>
      <trkpt lat="50.58543" lon="3.59073">
        <ele>58.167884</ele>
        <time>2021-05-26T19:41:32.866Z</time>
      </trkpt>
      <trkpt lat="50.58582" lon="3.59107">
        <ele>57.275945</ele>
        <time>2021-05-26T19:41:37.649Z</time>
      </trkpt>
      <trkpt lat="50.58615" lon="3.59131">
        <ele>56.544455</ele>
        <time>2021-05-26T19:41:41.521Z</time>
      </trkpt>
      <trkpt lat="50.58701" lon="3.59184">
        <ele>54.932391</ele>
        <time>2021-05-26T19:41:51.396Z</time>
      </trkpt>
      <trkpt lat="50.58744" lon="3.59194">
        <ele>54.224033</ele>
        <time>2021-05-26T19:41:56.245Z</time>
      </trkpt>
      <trkpt lat="50.58787" lon="3.59214">
        <ele>53.497779</ele>
        <time>2021-05-26T19:42:01.522Z</time>
      </trkpt>
      <trkpt lat="50.59011" lon="3.59305">
        <ele>51.814349</ele>
        <time>2021-05-26T19:42:31.832Z</time>
      </trkpt>
      <trkpt lat="50.5908" lon="3.59342">
        <ele>51.388453</ele>
        <time>2021-05-26T19:42:41.753Z</time>
      </trkpt>
      <trkpt lat="50.59196" lon="3.59472">
        <ele>50.416435</ele>
        <time>2021-05-26T19:42:59.881Z</time>
      </trkpt>
      <trkpt lat="50.5923" lon="3.59502">
        <ele>50.095229</ele>
        <time>2021-05-26T19:43:04.685Z</time>
      </trkpt>
      <trkpt lat="50.59268" lon="3.59538">
        <ele>49.724516</ele>
        <time>2021-05-26T19:43:10.237Z</time>
      </trkpt>
      <trkpt lat="50.59357" lon="3.59619">
        <ele>48.951562</ele>
        <time>2021-05-26T19:43:23.102Z</time>
      </trkpt>
      <trkpt lat="50.59371" lon="3.59639">
        <ele>48.815129</ele>
        <time>2021-05-26T19:43:25.600Z</time>
      </trkpt>
      <trkpt lat="50.59418" lon="3.59748">
        <ele>48.229047</ele>
        <time>2021-05-26T19:43:36.370Z</time>
      </trkpt>
      <trkpt lat="50.59435" lon="3.59773">
        <ele>48.092477</ele>
        <time>2021-05-26T19:43:39.464Z</time>
      </trkpt>
      <trkpt lat="50.59487" lon="3.59828">
        <ele>47.837442</ele>
        <time>2021-05-26T19:43:47.628Z</time>
      </trkpt>
      <trkpt lat="50.5949" lon="3.59829">
        <ele>47.824792</ele>
        <time>2021-05-26T19:43:48.044Z</time>
      </trkpt>
      <trkpt lat="50.5951" lon="3.59832">
        <ele>47.742643</ele>
        <time>2021-05-26T19:43:50.648Z</time>
      </trkpt>
      <trkpt lat="50.59526" lon="3.59854">
        <ele>47.658676</ele>
        <time>2021-05-26T19:43:53.444Z</time>
      </trkpt>
      <trkpt lat="50.59572" lon="3.60016">
        <ele>47.491611</ele>
        <time>2021-05-26T19:44:09.461Z</time>
      </trkpt>
      <trkpt lat="50.59591" lon="3.60088">
        <ele>47.581163</ele>
        <time>2021-05-26T19:44:17.309Z</time>
      </trkpt>
      <trkpt lat="50.59593" lon="3.60135">
        <ele>47.634679</ele>
        <time>2021-05-26T19:44:22.120Z</time>
      </trkpt>
      <trkpt lat="50.59595" lon="3.60152">
        <ele>47.654124</ele>
        <time>2021-05-26T19:44:23.954Z</time>
      </trkpt>
      <trkpt lat="50.59598" lon="3.60171">
        <ele>47.677256</ele>
        <time>2021-05-26T19:44:26.134Z</time>
      </trkpt>
      <trkpt lat="50.59609" lon="3.60204">
        <ele>47.719724</ele>
        <time>2021-05-26T19:44:30.049Z</time>
      </trkpt>
      <trkpt lat="50.5961" lon="3.60213">
        <ele>47.734057</ele>
        <time>2021-05-26T19:44:31.113Z</time>
      </trkpt>
      <trkpt lat="50.59656" lon="3.60376">
        <ele>48.130284</ele>
        <time>2021-05-26T19:44:50.319Z</time>
      </trkpt>
      <trkpt lat="50.5974" lon="3.61019">
        <ele>48.673547</ele>
        <time>2021-05-26T19:45:53.798Z</time>
      </trkpt>
      <trkpt lat="50.59748" lon="3.61083">
        <ele>48.537731</ele>
        <time>2021-05-26T19:46:00.030Z</time>
      </trkpt>
      <trkpt lat="50.59755" lon="3.61149">
        <ele>48.359434</ele>
        <time>2021-05-26T19:46:06.193Z</time>
      </trkpt>
      <trkpt lat="50.59768" lon="3.61248">
        <ele>48.090663</ele>
        <time>2021-05-26T19:46:14.806Z</time>
      </trkpt>
      <trkpt lat="50.59773" lon="3.6129">
        <ele>47.977466</ele>
        <time>2021-05-26T19:46:18.178Z</time>
      </trkpt>
      <trkpt lat="50.59775" lon="3.61305">
        <ele>47.937774</ele>
        <time>2021-05-26T19:46:19.336Z</time>
      </trkpt>
      <trkpt lat="50.59839" lon="3.61289">
        <ele>47.371653</ele>
        <time>2021-05-26T19:46:30.429Z</time>
      </trkpt>
      <trkpt lat="50.5985" lon="3.61299">
        <ele>47.256753</ele>
        <time>2021-05-26T19:46:32.638Z</time>
      </trkpt>
      <trkpt lat="50.59859" lon="3.61315">
        <ele>47.139548</ele>
        <time>2021-05-26T19:46:34.957Z</time>
      </trkpt>
      <trkpt lat="50.59878" lon="3.61366">
        <ele>46.80743</ele>
        <time>2021-05-26T19:46:41.473Z</time>
      </trkpt>
      <trkpt lat="50.59884" lon="3.61371">
        <ele>46.747512</ele>
        <time>2021-05-26T19:46:42.647Z</time>
      </trkpt>
      <trkpt lat="50.5992" lon="3.61399">
        <ele>46.391009</ele>
        <time>2021-05-26T19:46:49.858Z</time>
      </trkpt>
      <trkpt lat="50.59926" lon="3.61411">
        <ele>46.337343</ele>
        <time>2021-05-26T19:46:51.645Z</time>
      </trkpt>
      <trkpt lat="50.59935" lon="3.61442">
        <ele>46.354194</ele>
        <time>2021-05-26T19:46:55.674Z</time>
      </trkpt>
      <trkpt lat="50.59945" lon="3.61476">
        <ele>46.372607</ele>
        <time>2021-05-26T19:47:00.264Z</time>
      </trkpt>
      <trkpt lat="50.59962" lon="3.61535">
        <ele>46.404669</ele>
        <time>2021-05-26T19:47:08.789Z</time>
      </trkpt>
      <trkpt lat="50.59964" lon="3.61543">
        <ele>46.408753</ele>
        <time>2021-05-26T19:47:09.879Z</time>
      </trkpt>
      <trkpt lat="50.59979" lon="3.61604">
        <ele>46.441313</ele>
        <time>2021-05-26T19:47:18.948Z</time>
      </trkpt>
      <trkpt lat="50.60002" lon="3.6166">
        <ele>46.474408</ele>
        <time>2021-05-26T19:47:28.529Z</time>
      </trkpt>
      <trkpt lat="50.60011" lon="3.6168">
        <ele>46.534989</ele>
        <time>2021-05-26T19:47:32.061Z</time>
      </trkpt>
      <trkpt lat="50.6001" lon="3.61681">
        <ele>46.5394</ele>
        <time>2021-05-26T19:47:32.288Z</time>
      </trkpt>
      <trkpt lat="50.6001" lon="3.61686">
        <ele>46.55144</ele>
        <time>2021-05-26T19:47:32.769Z</time>
      </trkpt>
      <trkpt lat="50.60011" lon="3.6169">
        <ele>46.562746</ele>
        <time>2021-05-26T19:47:33.253Z</time>
      </trkpt>
      <trkpt lat="50.60013" lon="3.61694">
        <ele>46.574678</ele>
        <time>2021-05-26T19:47:33.718Z</time>
      </trkpt>
      <trkpt lat="50.60014" lon="3.61695">
        <ele>46.581829</ele>
        <time>2021-05-26T19:47:34.004Z</time>
      </trkpt>
      <trkpt lat="50.60016" lon="3.61696">
        <ele>46.589376</ele>
        <time>2021-05-26T19:47:34.257Z</time>
      </trkpt>
      <trkpt lat="50.6002" lon="3.61694">
        <ele>46.606702</ele>
        <time>2021-05-26T19:47:34.901Z</time>
      </trkpt>
      <trkpt lat="50.60021" lon="3.61693">
        <ele>46.611858</ele>
        <time>2021-05-26T19:47:35.059Z</time>
      </trkpt>
      <trkpt lat="50.60027" lon="3.61709">
        <ele>46.661142</ele>
        <time>2021-05-26T19:47:37.154Z</time>
      </trkpt>
      <trkpt lat="50.6003" lon="3.61722">
        <ele>46.695692</ele>
        <time>2021-05-26T19:47:38.672Z</time>
      </trkpt>
      <trkpt lat="50.60038" lon="3.6175">
        <ele>46.775978</ele>
        <time>2021-05-26T19:47:41.752Z</time>
      </trkpt>
      <trkpt lat="50.60056" lon="3.61772">
        <ele>46.868617</ele>
        <time>2021-05-26T19:47:45.722Z</time>
      </trkpt>
      <trkpt lat="50.60058" lon="3.61781">
        <ele>46.895393</ele>
        <time>2021-05-26T19:47:46.771Z</time>
      </trkpt>
      <trkpt lat="50.60076" lon="3.61839">
        <ele>47.062601</ele>
        <time>2021-05-26T19:47:53.392Z</time>
      </trkpt>
      <trkpt lat="50.60089" lon="3.61887">
        <ele>47.199671</ele>
        <time>2021-05-26T19:47:59.139Z</time>
      </trkpt>
      <trkpt lat="50.60103" lon="3.61928">
        <ele>47.239285</ele>
        <time>2021-05-26T19:48:03.706Z</time>
      </trkpt>
      <trkpt lat="50.60122" lon="3.61962">
        <ele>47.269735</ele>
        <time>2021-05-26T19:48:07.700Z</time>
      </trkpt>
      <trkpt lat="50.60127" lon="3.61975">
        <ele>47.280114</ele>
        <time>2021-05-26T19:48:09.279Z</time>
      </trkpt>
      <trkpt lat="50.60142" lon="3.6206">
        <ele>47.338674</ele>
        <time>2021-05-26T19:48:16.812Z</time>
      </trkpt>
      <trkpt lat="50.60146" lon="3.62082">
        <ele>47.353554</ele>
        <time>2021-05-26T19:48:19.234Z</time>
      </trkpt>
      <trkpt lat="50.60142" lon="3.62083">
        <ele>47.357789</ele>
        <time>2021-05-26T19:48:19.979Z</time>
      </trkpt>
      <trkpt lat="50.60138" lon="3.62098">
        <ele>47.368679</ele>
        <time>2021-05-26T19:48:21.461Z</time>
      </trkpt>
      <trkpt lat="50.60139" lon="3.62102">
        <ele>47.371412</ele>
        <time>2021-05-26T19:48:21.894Z</time>
      </trkpt>
      <trkpt lat="50.60141" lon="3.62106">
        <ele>47.374522</ele>
        <time>2021-05-26T19:48:22.248Z</time>
      </trkpt>
      <trkpt lat="50.60151" lon="3.62107">
        <ele>47.385018</ele>
        <time>2021-05-26T19:48:23.810Z</time>
      </trkpt>
      <trkpt lat="50.60155" lon="3.62094">
        <ele>47.394887</ele>
        <time>2021-05-26T19:48:25.705Z</time>
      </trkpt>
      <trkpt lat="50.60154" lon="3.62089">
        <ele>47.398084</ele>
        <time>2021-05-26T19:48:26.118Z</time>
      </trkpt>
      <trkpt lat="50.60161" lon="3.62087">
        <ele>47.476911</ele>
        <time>2021-05-26T19:48:27.223Z</time>
      </trkpt>
      <trkpt lat="50.60192" lon="3.62077">
        <ele>47.981718</ele>
        <time>2021-05-26T19:48:32.839Z</time>
      </trkpt>
      <trkpt lat="50.6021" lon="3.6207">
        <ele>48.278861</ele>
        <time>2021-05-26T19:48:36.045Z</time>
      </trkpt>
      <trkpt lat="50.60264" lon="3.62049">
        <ele>49.148583</ele>
        <time>2021-05-26T19:48:47.678Z</time>
      </trkpt>
      <trkpt lat="50.60317" lon="3.62011">
        <ele>50.0875</ele>
        <time>2021-05-26T19:49:00.657Z</time>
      </trkpt>
      <trkpt lat="50.60334" lon="3.61995">
        <ele>50.552124</ele>
        <time>2021-05-26T19:49:06.196Z</time>
      </trkpt>
      <trkpt lat="50.60339" lon="3.6199">
        <ele>50.752745</ele>
        <time>2021-05-26T19:49:07.551Z</time>
      </trkpt>
      <trkpt lat="50.60365" lon="3.61963">
        <ele>51.810477</ele>
        <time>2021-05-26T19:49:17.042Z</time>
      </trkpt>
      <trkpt lat="50.60393" lon="3.61925">
        <ele>53.057988</ele>
        <time>2021-05-26T19:49:27.730Z</time>
      </trkpt>
      <trkpt lat="50.60433" lon="3.61863">
        <ele>54.96311</ele>
        <time>2021-05-26T19:49:44.426Z</time>
      </trkpt>
      <trkpt lat="50.60444" lon="3.61848">
        <ele>55.453686</ele>
        <time>2021-05-26T19:49:48.901Z</time>
      </trkpt>
      <trkpt lat="50.60451" lon="3.61839">
        <ele>55.745092</ele>
        <time>2021-05-26T19:49:51.363Z</time>
      </trkpt>
      <trkpt lat="50.60451" lon="3.61839">
        <ele>55.757129</ele>
        <time>2021-05-26T19:49:51.477Z</time>
      </trkpt>
      <trkpt lat="50.6046" lon="3.6183">
        <ele>56.10392</ele>
        <time>2021-05-26T19:49:54.497Z</time>
      </trkpt>
      <trkpt lat="50.60463" lon="3.61827">
        <ele>56.242972</ele>
        <time>2021-05-26T19:49:55.595Z</time>
      </trkpt>
      <trkpt lat="50.60469" lon="3.61824">
        <ele>56.435602</ele>
        <time>2021-05-26T19:49:57.258Z</time>
      </trkpt>
      <trkpt lat="50.60479" lon="3.6182">
        <ele>56.715733</ele>
        <time>2021-05-26T19:50:00.105Z</time>
      </trkpt>
      <trkpt lat="50.60483" lon="3.61819">
        <ele>56.831294</ele>
        <time>2021-05-26T19:50:01.313Z</time>
      </trkpt>
      <trkpt lat="50.6049" lon="3.61825">
        <ele>57.065071</ele>
        <time>2021-05-26T19:50:03.661Z</time>
      </trkpt>
      <trkpt lat="50.60504" lon="3.61825">
        <ele>57.436119</ele>
        <time>2021-05-26T19:50:07.105Z</time>
      </trkpt>
      <trkpt lat="50.60511" lon="3.61821">
        <ele>57.663988</ele>
        <time>2021-05-26T19:50:09.348Z</time>
      </trkpt>
      <trkpt lat="50.60521" lon="3.61782">
        <ele>58.412507</ele>
        <time>2021-05-26T19:50:16.912Z</time>
      </trkpt>
      <trkpt lat="50.60525" lon="3.61783">
        <ele>58.52302</ele>
        <time>2021-05-26T19:50:18.120Z</time>
      </trkpt>
      <trkpt lat="50.60536" lon="3.61784">
        <ele>58.833247</ele>
        <time>2021-05-26T19:50:22.019Z</time>
      </trkpt>
      <trkpt lat="50.60578" lon="3.61766">
        <ele>60.051334</ele>
        <time>2021-05-26T19:50:35.952Z</time>
      </trkpt>
      <trkpt lat="50.60596" lon="3.61753">
        <ele>60.591545</ele>
        <time>2021-05-26T19:50:41.428Z</time>
      </trkpt>
      <trkpt lat="50.60598" lon="3.61751">
        <ele>60.675532</ele>
        <time>2021-05-26T19:50:42.403Z</time>
      </trkpt>
      <trkpt lat="50.60663" lon="3.61676">
        <ele>61.773165</ele>
        <time>2021-05-26T19:51:04.048Z</time>
      </trkpt>
      <trkpt lat="50.60661" lon="3.61647">
        <ele>61.90727</ele>
        <time>2021-05-26T19:51:08.331Z</time>
      </trkpt>
      <trkpt lat="50.60697" lon="3.61637">
        <ele>62.173586</ele>
        <time>2021-05-26T19:51:14.607Z</time>
      </trkpt>
      <trkpt lat="50.60708" lon="3.61635">
        <ele>62.25025</ele>
        <time>2021-05-26T19:51:16.381Z</time>
      </trkpt>
      <trkpt lat="50.60823" lon="3.61606">
        <ele>62.497645</ele>
        <time>2021-05-26T19:51:32.815Z</time>
      </trkpt>
      <trkpt lat="50.61044" lon="3.61551">
        <ele>62.195333</ele>
        <time>2021-05-26T19:52:03.002Z</time>
      </trkpt>
      <trkpt lat="50.61266" lon="3.61498">
        <ele>62.828701</ele>
        <time>2021-05-26T19:52:42.827Z</time>
      </trkpt>
      <trkpt lat="50.61273" lon="3.61496">
        <ele>62.857611</ele>
        <time>2021-05-26T19:52:43.933Z</time>
      </trkpt>
      <trkpt lat="50.61318" lon="3.61488">
        <ele>62.594244</ele>
        <time>2021-05-26T19:52:49.820Z</time>
      </trkpt>
      <trkpt lat="50.61341" lon="3.61486">
        <ele>62.130585</ele>
        <time>2021-05-26T19:52:52.717Z</time>
      </trkpt>
      <trkpt lat="50.61339" lon="3.61478">
        <ele>62.024935</ele>
        <time>2021-05-26T19:52:53.610Z</time>
      </trkpt>
      <trkpt lat="50.61335" lon="3.61426">
        <ele>61.365036</ele>
        <time>2021-05-26T19:52:59.043Z</time>
      </trkpt>
      <trkpt lat="50.61328" lon="3.61294">
        <ele>59.683666</ele>
        <time>2021-05-26T19:53:11.827Z</time>
      </trkpt>
      <trkpt lat="50.61301" lon="3.61067">
        <ele>54.844991</ele>
        <time>2021-05-26T19:53:32.595Z</time>
      </trkpt>
      <trkpt lat="50.61299" lon="3.61007">
        <ele>53.524538</ele>
        <time>2021-05-26T19:53:38.144Z</time>
      </trkpt>
      <trkpt lat="50.61305" lon="3.60948">
        <ele>52.755507</ele>
        <time>2021-05-26T19:53:43.829Z</time>
      </trkpt>
      <trkpt lat="50.61318" lon="3.60871">
        <ele>52.047716</ele>
        <time>2021-05-26T19:53:51.673Z</time>
      </trkpt>
      <trkpt lat="50.61322" lon="3.60851">
        <ele>51.85509</ele>
        <time>2021-05-26T19:53:53.932Z</time>
      </trkpt>
      <trkpt lat="50.6133" lon="3.60781">
        <ele>51.220967</ele>
        <time>2021-05-26T19:54:01.575Z</time>
      </trkpt>
      <trkpt lat="50.6131" lon="3.60466">
        <ele>51.671357</ele>
        <time>2021-05-26T19:54:45.934Z</time>
      </trkpt>
      <trkpt lat="50.6154" lon="3.60343">
        <ele>55.670269</ele>
        <time>2021-05-26T19:55:53.683Z</time>
      </trkpt>
      <trkpt lat="50.61493" lon="3.6021">
        <ele>57.071988</ele>
        <time>2021-05-26T19:56:13.805Z</time>
      </trkpt>
      <trkpt lat="50.61402" lon="3.59956">
        <ele>59.135732</ele>
        <time>2021-05-26T19:56:48.391Z</time>
      </trkpt>
      <trkpt lat="50.61313" lon="3.59639">
        <ele>61.66423</ele>
        <time>2021-05-26T19:57:30.900Z</time>
      </trkpt>
      <trkpt lat="50.61292" lon="3.59536">
        <ele>62.9947</ele>
        <time>2021-05-26T19:57:45.874Z</time>
      </trkpt>
      <trkpt lat="50.61283" lon="3.59436">
        <ele>64.230957</ele>
        <time>2021-05-26T19:58:00.673Z</time>
      </trkpt>
      <trkpt lat="50.6128" lon="3.5907">
        <ele>69.375783</ele>
        <time>2021-05-26T19:58:57.605Z</time>
      </trkpt>
      <trkpt lat="50.61266" lon="3.58985">
        <ele>70.025819</ele>
        <time>2021-05-26T19:59:09.973Z</time>
      </trkpt>
      <trkpt lat="50.61253" lon="3.5893">
        <ele>70.455515</ele>
        <time>2021-05-26T19:59:17.412Z</time>
      </trkpt>
      <trkpt lat="50.61243" lon="3.58892">
        <ele>70.764005</ele>
        <time>2021-05-26T19:59:22.370Z</time>
      </trkpt>
      <trkpt lat="50.61228" lon="3.58814">
        <ele>71.356965</ele>
        <time>2021-05-26T19:59:30.669Z</time>
      </trkpt>
      <trkpt lat="50.61224" lon="3.58731">
        <ele>70.988362</ele>
        <time>2021-05-26T19:59:38.198Z</time>
      </trkpt>
      <trkpt lat="50.61257" lon="3.5835">
        <ele>69.184413</ele>
        <time>2021-05-26T20:00:07.628Z</time>
      </trkpt>
      <trkpt lat="50.61264" lon="3.58301">
        <ele>68.956187</ele>
        <time>2021-05-26T20:00:11.839Z</time>
      </trkpt>
      <trkpt lat="50.61269" lon="3.58271">
        <ele>68.809552</ele>
        <time>2021-05-26T20:00:14.747Z</time>
      </trkpt>
      <trkpt lat="50.61277" lon="3.58199">
        <ele>69.053893</ele>
        <time>2021-05-26T20:00:21.874Z</time>
      </trkpt>
      <trkpt lat="50.61341" lon="3.57981">
        <ele>70.544402</ele>
        <time>2021-05-26T20:00:52.322Z</time>
      </trkpt>
      <trkpt lat="50.61361" lon="3.57908">
        <ele>71.069619</ele>
        <time>2021-05-26T20:01:02.994Z</time>
      </trkpt>
      <trkpt lat="50.6137" lon="3.57864">
        <ele>71.375582</ele>
        <time>2021-05-26T20:01:09.119Z</time>
      </trkpt>
      <trkpt lat="50.61392" lon="3.57754">
        <ele>72.133108</ele>
        <time>2021-05-26T20:01:23.537Z</time>
      </trkpt>
      <trkpt lat="50.61382" lon="3.57654">
        <ele>71.546386</ele>
        <time>2021-05-26T20:01:33.213Z</time>
      </trkpt>
      <trkpt lat="50.61376" lon="3.57629">
        <ele>71.248414</ele>
        <time>2021-05-26T20:01:35.159Z</time>
      </trkpt>
      <trkpt lat="50.61355" lon="3.57554">
        <ele>70.296141</ele>
        <time>2021-05-26T20:01:40.908Z</time>
      </trkpt>
      <trkpt lat="50.61341" lon="3.57484">
        <ele>69.453399</ele>
        <time>2021-05-26T20:01:45.741Z</time>
      </trkpt>
      <trkpt lat="50.61338" lon="3.5741">
        <ele>67.901146</ele>
        <time>2021-05-26T20:01:50.454Z</time>
      </trkpt>
      <trkpt lat="50.61354" lon="3.57041">
        <ele>58.12873</ele>
        <time>2021-05-26T20:02:12.909Z</time>
      </trkpt>
      <trkpt lat="50.61392" lon="3.56868">
        <ele>54.171255</ele>
        <time>2021-05-26T20:02:24.692Z</time>
      </trkpt>
      <trkpt lat="50.61445" lon="3.56653">
        <ele>51.957732</ele>
        <time>2021-05-26T20:02:41.628Z</time>
      </trkpt>
      <trkpt lat="50.61464" lon="3.56577">
        <ele>52.153049</ele>
        <time>2021-05-26T20:02:49.481Z</time>
      </trkpt>
      <trkpt lat="50.61481" lon="3.56505">
        <ele>52.717693</ele>
        <time>2021-05-26T20:02:58.121Z</time>
      </trkpt>
      <trkpt lat="50.6161" lon="3.56171">
        <ele>56.977499</ele>
        <time>2021-05-26T20:03:55.905Z</time>
      </trkpt>
      <trkpt lat="50.61627" lon="3.56107">
        <ele>57.808094</ele>
        <time>2021-05-26T20:04:05.813Z</time>
      </trkpt>
      <trkpt lat="50.61635" lon="3.56044">
        <ele>58.481261</ele>
        <time>2021-05-26T20:04:14.482Z</time>
      </trkpt>
      <trkpt lat="50.61632" lon="3.55987">
        <ele>59.076761</ele>
        <time>2021-05-26T20:04:22.020Z</time>
      </trkpt>
      <trkpt lat="50.61595" lon="3.55782">
        <ele>61.105174</ele>
        <time>2021-05-26T20:04:50.960Z</time>
      </trkpt>
      <trkpt lat="50.61589" lon="3.55748">
        <ele>61.393343</ele>
        <time>2021-05-26T20:04:55.605Z</time>
      </trkpt>
      <trkpt lat="50.61576" lon="3.5571">
        <ele>61.739542</ele>
        <time>2021-05-26T20:05:01.115Z</time>
      </trkpt>
      <trkpt lat="50.61534" lon="3.55623">
        <ele>62.619573</ele>
        <time>2021-05-26T20:05:14.425Z</time>
      </trkpt>
      <trkpt lat="50.61492" lon="3.55539">
        <ele>63.096195</ele>
        <time>2021-05-26T20:05:26.790Z</time>
      </trkpt>
      <trkpt lat="50.6147" lon="3.55482">
        <ele>63.350313</ele>
        <time>2021-05-26T20:05:33.534Z</time>
      </trkpt>
      <trkpt lat="50.61459" lon="3.55432">
        <ele>63.552776</ele>
        <time>2021-05-26T20:05:38.764Z</time>
      </trkpt>
      <trkpt lat="50.61456" lon="3.55408">
        <ele>63.644304</ele>
        <time>2021-05-26T20:05:41.087Z</time>
      </trkpt>
      <trkpt lat="50.61446" lon="3.55271">
        <ele>64.594543</ele>
        <time>2021-05-26T20:05:56.772Z</time>
      </trkpt>
      <trkpt lat="50.61445" lon="3.55268">
        <ele>64.626643</ele>
        <time>2021-05-26T20:05:57.231Z</time>
      </trkpt>
      <trkpt lat="50.61432" lon="3.55052">
        <ele>66.524463</ele>
        <time>2021-05-26T20:06:27.160Z</time>
      </trkpt>
      <trkpt lat="50.61424" lon="3.54952">
        <ele>67.471134</ele>
        <time>2021-05-26T20:06:41.482Z</time>
      </trkpt>
      <trkpt lat="50.61423" lon="3.54849">
        <ele>68.441571</ele>
        <time>2021-05-26T20:06:55.023Z</time>
      </trkpt>
      <trkpt lat="50.61434" lon="3.54691">
        <ele>69.2103</ele>
        <time>2021-05-26T20:07:13.445Z</time>
      </trkpt>
      <trkpt lat="50.61434" lon="3.54678">
        <ele>69.242805</ele>
        <time>2021-05-26T20:07:14.909Z</time>
      </trkpt>
      <trkpt lat="50.61446" lon="3.54392">
        <ele>69.333005</ele>
        <time>2021-05-26T20:07:42.073Z</time>
      </trkpt>
      <trkpt lat="50.61447" lon="3.54377">
        <ele>69.293898</ele>
        <time>2021-05-26T20:07:43.338Z</time>
      </trkpt>
      <trkpt lat="50.61338" lon="3.54284">
        <ele>68.794624</ele>
        <time>2021-05-26T20:07:59.088Z</time>
      </trkpt>
      <trkpt lat="50.61305" lon="3.54248">
        <ele>68.652398</ele>
        <time>2021-05-26T20:08:04.115Z</time>
      </trkpt>
      <trkpt lat="50.61102" lon="3.53912">
        <ele>68.408325</ele>
        <time>2021-05-26T20:08:47.249Z</time>
      </trkpt>
      <trkpt lat="50.61094" lon="3.53899">
        <ele>68.523799</ele>
        <time>2021-05-26T20:08:49.403Z</time>
      </trkpt>
      <trkpt lat="50.61064" lon="3.53851">
        <ele>68.951215</ele>
        <time>2021-05-26T20:08:56.919Z</time>
      </trkpt>
      <trkpt lat="50.61046" lon="3.5384">
        <ele>69.139629</ele>
        <time>2021-05-26T20:09:00.230Z</time>
      </trkpt>
      <trkpt lat="50.61039" lon="3.53841">
        <ele>69.214913</ele>
        <time>2021-05-26T20:09:01.848Z</time>
      </trkpt>
      <trkpt lat="50.61025" lon="3.53846">
        <ele>69.354729</ele>
        <time>2021-05-26T20:09:04.437Z</time>
      </trkpt>
      <trkpt lat="50.60945" lon="3.53893">
        <ele>70.250276</ele>
        <time>2021-05-26T20:09:21.711Z</time>
      </trkpt>
      <trkpt lat="50.60797" lon="3.54048">
        <ele>73.472269</ele>
        <time>2021-05-26T20:10:01.836Z</time>
      </trkpt>
      <trkpt lat="50.60725" lon="3.54089">
        <ele>74.640484</ele>
        <time>2021-05-26T20:10:18.360Z</time>
      </trkpt>
      <trkpt lat="50.60666" lon="3.5411">
        <ele>75.586088</ele>
        <time>2021-05-26T20:10:30.613Z</time>
      </trkpt>
      <trkpt lat="50.60654" lon="3.54108">
        <ele>75.768761</ele>
        <time>2021-05-26T20:10:33.407Z</time>
      </trkpt>
      <trkpt lat="50.60637" lon="3.54106">
        <ele>76.034962</ele>
        <time>2021-05-26T20:10:36.477Z</time>
      </trkpt>
      <trkpt lat="50.60585" lon="3.54096">
        <ele>76.736824</ele>
        <time>2021-05-26T20:10:47.073Z</time>
      </trkpt>
      <trkpt lat="50.60554" lon="3.54114">
        <ele>77.180405</ele>
        <time>2021-05-26T20:10:53.572Z</time>
      </trkpt>
      <trkpt lat="50.60536" lon="3.54139">
        <ele>77.494075</ele>
        <time>2021-05-26T20:10:58.014Z</time>
      </trkpt>
      <trkpt lat="50.60453" lon="3.54299">
        <ele>78.879939</ele>
        <time>2021-05-26T20:11:25.280Z</time>
      </trkpt>
      <trkpt lat="50.60435" lon="3.54302">
        <ele>78.992793</ele>
        <time>2021-05-26T20:11:29.227Z</time>
      </trkpt>
      <trkpt lat="50.60411" lon="3.54293">
        <ele>79.145467</ele>
        <time>2021-05-26T20:11:33.268Z</time>
      </trkpt>
      <trkpt lat="50.60399" lon="3.54294">
        <ele>79.216307</ele>
        <time>2021-05-26T20:11:35.561Z</time>
      </trkpt>
      <trkpt lat="50.60391" lon="3.54297">
        <ele>79.272061</ele>
        <time>2021-05-26T20:11:36.981Z</time>
      </trkpt>
      <trkpt lat="50.60358" lon="3.54328">
        <ele>79.509486</ele>
        <time>2021-05-26T20:11:42.933Z</time>
      </trkpt>
      <trkpt lat="50.60349" lon="3.54347">
        <ele>79.602343</ele>
        <time>2021-05-26T20:11:44.907Z</time>
      </trkpt>
      <trkpt lat="50.60345" lon="3.54362">
        <ele>79.66649</ele>
        <time>2021-05-26T20:11:46.660Z</time>
      </trkpt>
      <trkpt lat="50.60336" lon="3.54429">
        <ele>79.032014</ele>
        <time>2021-05-26T20:11:52.291Z</time>
      </trkpt>
      <trkpt lat="50.60331" lon="3.54448">
        <ele>78.831196</ele>
        <time>2021-05-26T20:11:53.783Z</time>
      </trkpt>
      <trkpt lat="50.60325" lon="3.54456">
        <ele>78.700973</ele>
        <time>2021-05-26T20:11:54.705Z</time>
      </trkpt>
      <trkpt lat="50.60249" lon="3.54486">
        <ele>77.446769</ele>
        <time>2021-05-26T20:12:03.335Z</time>
      </trkpt>
      <trkpt lat="50.6023" lon="3.54482">
        <ele>77.144556</ele>
        <time>2021-05-26T20:12:05.406Z</time>
      </trkpt>
      <trkpt lat="50.60058" lon="3.54363">
        <ele>72.823141</ele>
        <time>2021-05-26T20:12:25.275Z</time>
      </trkpt>
      <trkpt lat="50.60041" lon="3.54359">
        <ele>72.436795</ele>
        <time>2021-05-26T20:12:27.144Z</time>
      </trkpt>
      <trkpt lat="50.5996" lon="3.54388">
        <ele>70.959584</ele>
        <time>2021-05-26T20:12:36.365Z</time>
      </trkpt>
      <trkpt lat="50.599" lon="3.5444">
        <ele>69.757955</ele>
        <time>2021-05-26T20:12:44.254Z</time>
      </trkpt>
      <trkpt lat="50.59873" lon="3.5446">
        <ele>69.217761</ele>
        <time>2021-05-26T20:12:47.821Z</time>
      </trkpt>
      <trkpt lat="50.59746" lon="3.54399">
        <ele>66.775499</ele>
        <time>2021-05-26T20:13:02.751Z</time>
      </trkpt>
      <trkpt lat="50.59661" lon="3.54355">
        <ele>64.697946</ele>
        <time>2021-05-26T20:13:12.304Z</time>
      </trkpt>
      <trkpt lat="50.59482" lon="3.5426">
        <ele>59.979563</ele>
        <time>2021-05-26T20:13:31.877Z</time>
      </trkpt>
      <trkpt lat="50.59369" lon="3.54211">
        <ele>57.68711</ele>
        <time>2021-05-26T20:13:44.975Z</time>
      </trkpt>
      <trkpt lat="50.59332" lon="3.54209">
        <ele>57.51149</ele>
        <time>2021-05-26T20:13:49.607Z</time>
      </trkpt>
      <trkpt lat="50.59303" lon="3.54211">
        <ele>57.437938</ele>
        <time>2021-05-26T20:13:53.567Z</time>
      </trkpt>
      <trkpt lat="50.59301" lon="3.54211">
        <ele>57.431538</ele>
        <time>2021-05-26T20:13:53.897Z</time>
      </trkpt>
      <trkpt lat="50.59298" lon="3.54211">
        <ele>57.425138</ele>
        <time>2021-05-26T20:13:54.237Z</time>
      </trkpt>
      <trkpt lat="50.59273" lon="3.54214">
        <ele>57.361351</ele>
        <time>2021-05-26T20:13:59.252Z</time>
      </trkpt>
      <trkpt lat="50.59246" lon="3.5422">
        <ele>57.289849</ele>
        <time>2021-05-26T20:14:04.947Z</time>
      </trkpt>
      <trkpt lat="50.59142" lon="3.5424">
        <ele>56.964119</ele>
        <time>2021-05-26T20:14:27.517Z</time>
      </trkpt>
      <trkpt lat="50.59007" lon="3.54263">
        <ele>56.42773</ele>
        <time>2021-05-26T20:14:52.576Z</time>
      </trkpt>
      <trkpt lat="50.5899" lon="3.54265">
        <ele>56.242451</ele>
        <time>2021-05-26T20:14:55.613Z</time>
      </trkpt>
      <trkpt lat="50.58922" lon="3.54275">
        <ele>55.488581</ele>
        <time>2021-05-26T20:15:07.046Z</time>
      </trkpt>
      <trkpt lat="50.58896" lon="3.54278">
        <ele>55.202973</ele>
        <time>2021-05-26T20:15:11.309Z</time>
      </trkpt>
      <trkpt lat="50.58821" lon="3.54285">
        <ele>54.439651</ele>
        <time>2021-05-26T20:15:23.987Z</time>
      </trkpt>
      <trkpt lat="50.58778" lon="3.54301">
        <ele>54.444543</ele>
        <time>2021-05-26T20:15:32.258Z</time>
      </trkpt>
      <trkpt lat="50.58736" lon="3.54294">
        <ele>54.449201</ele>
        <time>2021-05-26T20:15:40.817Z</time>
      </trkpt>
      <trkpt lat="50.58711" lon="3.54278">
        <ele>54.452144</ele>
        <time>2021-05-26T20:15:45.186Z</time>
      </trkpt>
      <trkpt lat="50.58675" lon="3.54263">
        <ele>54.456236</ele>
        <time>2021-05-26T20:15:51.284Z</time>
      </trkpt>
      <trkpt lat="50.58639" lon="3.54248">
        <ele>54.520273</ele>
        <time>2021-05-26T20:15:57.753Z</time>
      </trkpt>
      <trkpt lat="50.58625" lon="3.54242">
        <ele>54.588103</ele>
        <time>2021-05-26T20:16:00.455Z</time>
      </trkpt>
      <trkpt lat="50.58598" lon="3.54226">
        <ele>54.719706</ele>
        <time>2021-05-26T20:16:05.587Z</time>
      </trkpt>
      <trkpt lat="50.58553" lon="3.54197">
        <ele>54.939037</ele>
        <time>2021-05-26T20:16:14.173Z</time>
      </trkpt>
      <trkpt lat="50.58522" lon="3.54175">
        <ele>55.093355</ele>
        <time>2021-05-26T20:16:19.778Z</time>
      </trkpt>
      <trkpt lat="50.58501" lon="3.54162">
        <ele>55.196302</ele>
        <time>2021-05-26T20:16:23.246Z</time>
      </trkpt>
      <trkpt lat="50.58483" lon="3.54153">
        <ele>55.276601</ele>
        <time>2021-05-26T20:16:25.999Z</time>
      </trkpt>
      <trkpt lat="50.5847" lon="3.5415">
        <ele>55.284916</ele>
        <time>2021-05-26T20:16:27.818Z</time>
      </trkpt>
      <trkpt lat="50.58442" lon="3.54149">
        <ele>55.301851</ele>
        <time>2021-05-26T20:16:31.940Z</time>
      </trkpt>
      <trkpt lat="50.58379" lon="3.5417">
        <ele>55.341361</ele>
        <time>2021-05-26T20:16:41.687Z</time>
      </trkpt>
      <trkpt lat="50.58328" lon="3.54173">
        <ele>55.372321</ele>
        <time>2021-05-26T20:16:49.079Z</time>
      </trkpt>
      <trkpt lat="50.58325" lon="3.54142">
        <ele>55.384222</ele>
        <time>2021-05-26T20:16:52.144Z</time>
      </trkpt>
      <trkpt lat="50.58317" lon="3.5401">
        <ele>55.990978</ele>
        <time>2021-05-26T20:17:05.805Z</time>
      </trkpt>
      <trkpt lat="50.58268" lon="3.53758">
        <ele>57.738239</ele>
        <time>2021-05-26T20:17:38.349Z</time>
      </trkpt>
      <trkpt lat="50.58257" lon="3.53667">
        <ele>58.602171</ele>
        <time>2021-05-26T20:17:50.722Z</time>
      </trkpt>
      <trkpt lat="50.58247" lon="3.53578">
        <ele>59.472889</ele>
        <time>2021-05-26T20:18:03.175Z</time>
      </trkpt>
      <trkpt lat="50.58243" lon="3.53391">
        <ele>61.707565</ele>
        <time>2021-05-26T20:18:30.307Z</time>
      </trkpt>
      <trkpt lat="50.58243" lon="3.53285">
        <ele>62.917232</ele>
        <time>2021-05-26T20:18:45.203Z</time>
      </trkpt>
      <trkpt lat="50.5825" lon="3.53259">
        <ele>63.167545</ele>
        <time>2021-05-26T20:18:49.277Z</time>
      </trkpt>
      <trkpt lat="50.58271" lon="3.5312">
        <ele>64.449813</ele>
        <time>2021-05-26T20:19:08.123Z</time>
      </trkpt>
      <trkpt lat="50.58277" lon="3.5308">
        <ele>64.821406</ele>
        <time>2021-05-26T20:19:13.393Z</time>
      </trkpt>
      <trkpt lat="50.58234" lon="3.5307">
        <ele>65.371024</ele>
        <time>2021-05-26T20:19:21.633Z</time>
      </trkpt>
      <trkpt lat="50.58149" lon="3.53044">
        <ele>66.025627</ele>
        <time>2021-05-26T20:19:36.903Z</time>
      </trkpt>
      <trkpt lat="50.58138" lon="3.53033">
        <ele>66.128043</ele>
        <time>2021-05-26T20:19:39.310Z</time>
      </trkpt>
      <trkpt lat="50.57843" lon="3.52585">
        <ele>68.621128</ele>
        <time>2021-05-26T20:20:50.890Z</time>
      </trkpt>
      <trkpt lat="50.57739" lon="3.52426">
        <ele>68.284261</ele>
        <time>2021-05-26T20:21:11.090Z</time>
      </trkpt>
      <trkpt lat="50.57726" lon="3.52407">
        <ele>68.222389</ele>
        <time>2021-05-26T20:21:13.287Z</time>
      </trkpt>
      <trkpt lat="50.577" lon="3.5236">
        <ele>68.076824</ele>
        <time>2021-05-26T20:21:18.398Z</time>
      </trkpt>
      <trkpt lat="50.57208" lon="3.51782">
        <ele>63.439802</ele>
        <time>2021-05-26T20:22:37.383Z</time>
      </trkpt>
      <trkpt lat="50.57195" lon="3.5176">
        <ele>63.20291</ele>
        <time>2021-05-26T20:22:39.645Z</time>
      </trkpt>
      <trkpt lat="50.57205" lon="3.51728">
        <ele>62.913796</ele>
        <time>2021-05-26T20:22:42.212Z</time>
      </trkpt>
      <trkpt lat="50.57281" lon="3.51578">
        <ele>60.8648</ele>
        <time>2021-05-26T20:22:55.759Z</time>
      </trkpt>
      <trkpt lat="50.57284" lon="3.51565">
        <ele>60.68157</ele>
        <time>2021-05-26T20:22:56.722Z</time>
      </trkpt>
      <trkpt lat="50.5728" lon="3.51556">
        <ele>60.525384</ele>
        <time>2021-05-26T20:22:57.460Z</time>
      </trkpt>
      <trkpt lat="50.57213" lon="3.51454">
        <ele>58.575548</ele>
        <time>2021-05-26T20:23:07.578Z</time>
      </trkpt>
      <trkpt lat="50.57175" lon="3.5139">
        <ele>57.631768</ele>
        <time>2021-05-26T20:23:13.492Z</time>
      </trkpt>
      <trkpt lat="50.57136" lon="3.51318">
        <ele>56.64961</ele>
        <time>2021-05-26T20:23:20.294Z</time>
      </trkpt>
      <trkpt lat="50.57082" lon="3.51198">
        <ele>55.311038</ele>
        <time>2021-05-26T20:23:31.430Z</time>
      </trkpt>
      <trkpt lat="50.57069" lon="3.51155">
        <ele>55.113271</ele>
        <time>2021-05-26T20:23:35.193Z</time>
      </trkpt>
      <trkpt lat="50.57049" lon="3.51075">
        <ele>54.748786</ele>
        <time>2021-05-26T20:23:42.474Z</time>
      </trkpt>
      <trkpt lat="50.57028" lon="3.50919">
        <ele>54.073864</ele>
        <time>2021-05-26T20:23:56.049Z</time>
      </trkpt>
      <trkpt lat="50.57017" lon="3.50896">
        <ele>53.950125</ele>
        <time>2021-05-26T20:23:58.486Z</time>
      </trkpt>
      <trkpt lat="50.57006" lon="3.50892">
        <ele>53.87405</ele>
        <time>2021-05-26T20:24:00.165Z</time>
      </trkpt>
      <trkpt lat="50.57018" lon="3.50841">
        <ele>53.642556</ele>
        <time>2021-05-26T20:24:04.810Z</time>
      </trkpt>
      <trkpt lat="50.57049" lon="3.50764">
        <ele>53.257752</ele>
        <time>2021-05-26T20:24:12.143Z</time>
      </trkpt>
      <trkpt lat="50.57108" lon="3.50627">
        <ele>52.063007</ele>
        <time>2021-05-26T20:24:24.904Z</time>
      </trkpt>
      <trkpt lat="50.57116" lon="3.50608">
        <ele>51.860775</ele>
        <time>2021-05-26T20:24:26.608Z</time>
      </trkpt>
      <trkpt lat="50.57119" lon="3.50602">
        <ele>51.79724</ele>
        <time>2021-05-26T20:24:27.178Z</time>
      </trkpt>
      <trkpt lat="50.57134" lon="3.50564">
        <ele>51.41596</ele>
        <time>2021-05-26T20:24:30.454Z</time>
      </trkpt>
      <trkpt lat="50.57148" lon="3.50513">
        <ele>50.937041</ele>
        <time>2021-05-26T20:24:34.561Z</time>
      </trkpt>
      <trkpt lat="50.57156" lon="3.5045">
        <ele>50.305114</ele>
        <time>2021-05-26T20:24:39.146Z</time>
      </trkpt>
      <trkpt lat="50.57182" lon="3.50145">
        <ele>46.72672</ele>
        <time>2021-05-26T20:25:00.764Z</time>
      </trkpt>
      <trkpt lat="50.57192" lon="3.50024">
        <ele>45.494462</ele>
        <time>2021-05-26T20:25:09.468Z</time>
      </trkpt>
      <trkpt lat="50.57196" lon="3.49999">
        <ele>45.233837</ele>
        <time>2021-05-26T20:25:11.369Z</time>
      </trkpt>
      <trkpt lat="50.57206" lon="3.49931">
        <ele>44.527373</ele>
        <time>2021-05-26T20:25:16.561Z</time>
      </trkpt>
      <trkpt lat="50.57228" lon="3.49855">
        <ele>44.349177</ele>
        <time>2021-05-26T20:25:23.165Z</time>
      </trkpt>
      <trkpt lat="50.57263" lon="3.49779">
        <ele>44.306992</ele>
        <time>2021-05-26T20:25:31.491Z</time>
      </trkpt>
      <trkpt lat="50.57284" lon="3.4967">
        <ele>44.256448</ele>
        <time>2021-05-26T20:25:43.745Z</time>
      </trkpt>
      <trkpt lat="50.57319" lon="3.49531">
        <ele>45.484252</ele>
        <time>2021-05-26T20:26:02.953Z</time>
      </trkpt>
      <trkpt lat="50.57327" lon="3.49498">
        <ele>45.791223</ele>
        <time>2021-05-26T20:26:07.906Z</time>
      </trkpt>
      <trkpt lat="50.57337" lon="3.49452">
        <ele>46.211684</ele>
        <time>2021-05-26T20:26:14.421Z</time>
      </trkpt>
      <trkpt lat="50.57345" lon="3.49402">
        <ele>46.649262</ele>
        <time>2021-05-26T20:26:21.114Z</time>
      </trkpt>
      <trkpt lat="50.57352" lon="3.49352">
        <ele>46.983125</ele>
        <time>2021-05-26T20:26:27.764Z</time>
      </trkpt>
      <trkpt lat="50.57353" lon="3.49349">
        <ele>47.000417</ele>
        <time>2021-05-26T20:26:28.196Z</time>
      </trkpt>
      <trkpt lat="50.57367" lon="3.4924">
        <ele>47.700301</ele>
        <time>2021-05-26T20:26:42.329Z</time>
      </trkpt>
      <trkpt lat="50.57371" lon="3.49041">
        <ele>48.666291</ele>
        <time>2021-05-26T20:27:03.517Z</time>
      </trkpt>
      <trkpt lat="50.57356" lon="3.48832">
        <ele>49.229572</ele>
        <time>2021-05-26T20:27:25.337Z</time>
      </trkpt>
      <trkpt lat="50.57355" lon="3.4881">
        <ele>49.29126</ele>
        <time>2021-05-26T20:27:27.691Z</time>
      </trkpt>
      <trkpt lat="50.57351" lon="3.48791">
        <ele>49.346889</ele>
        <time>2021-05-26T20:27:29.842Z</time>
      </trkpt>
      <trkpt lat="50.57308" lon="3.48672">
        <ele>49.729007</ele>
        <time>2021-05-26T20:27:45.102Z</time>
      </trkpt>
      <trkpt lat="50.57284" lon="3.48598">
        <ele>49.961984</ele>
        <time>2021-05-26T20:27:53.907Z</time>
      </trkpt>
      <trkpt lat="50.57263" lon="3.48501">
        <ele>49.712479</ele>
        <time>2021-05-26T20:28:03.353Z</time>
      </trkpt>
      <trkpt lat="50.57252" lon="3.48448">
        <ele>49.518062</ele>
        <time>2021-05-26T20:28:08.208Z</time>
      </trkpt>
      <trkpt lat="50.57246" lon="3.48417">
        <ele>49.405067</ele>
        <time>2021-05-26T20:28:10.894Z</time>
      </trkpt>
      <trkpt lat="50.5724" lon="3.48391">
        <ele>49.310254</ele>
        <time>2021-05-26T20:28:13.168Z</time>
      </trkpt>
      <trkpt lat="50.57235" lon="3.48362">
        <ele>49.206194</ele>
        <time>2021-05-26T20:28:15.536Z</time>
      </trkpt>
      <trkpt lat="50.57191" lon="3.48156">
        <ele>47.912218</ele>
        <time>2021-05-26T20:28:31.784Z</time>
      </trkpt>
      <trkpt lat="50.57179" lon="3.48099">
        <ele>47.503242</ele>
        <time>2021-05-26T20:28:36.508Z</time>
      </trkpt>
      <trkpt lat="50.57175" lon="3.4809">
        <ele>47.424773</ele>
        <time>2021-05-26T20:28:37.326Z</time>
      </trkpt>
      <trkpt lat="50.57171" lon="3.48065">
        <ele>47.253794</ele>
        <time>2021-05-26T20:28:39.487Z</time>
      </trkpt>
      <trkpt lat="50.57133" lon="3.47873">
        <ele>46.71948</ele>
        <time>2021-05-26T20:28:56.458Z</time>
      </trkpt>
      <trkpt lat="50.57106" lon="3.47799">
        <ele>46.531236</ele>
        <time>2021-05-26T20:29:04.713Z</time>
      </trkpt>
      <trkpt lat="50.57079" lon="3.47757">
        <ele>46.392632</ele>
        <time>2021-05-26T20:29:10.348Z</time>
      </trkpt>
      <trkpt lat="50.5702" lon="3.47684">
        <ele>46.117728</ele>
        <time>2021-05-26T20:29:20.993Z</time>
      </trkpt>
      <trkpt lat="50.57008" lon="3.47669">
        <ele>46.0615</ele>
        <time>2021-05-26T20:29:22.933Z</time>
      </trkpt>
      <trkpt lat="50.56963" lon="3.47614">
        <ele>45.849775</ele>
        <time>2021-05-26T20:29:30.566Z</time>
      </trkpt>
      <trkpt lat="50.56943" lon="3.476">
        <ele>45.671139</ele>
        <time>2021-05-26T20:29:33.172Z</time>
      </trkpt>
      <trkpt lat="50.569" lon="3.47571">
        <ele>45.220986</ele>
        <time>2021-05-26T20:29:38.916Z</time>
      </trkpt>
      <trkpt lat="50.56882" lon="3.47565">
        <ele>45.041708</ele>
        <time>2021-05-26T20:29:41.085Z</time>
      </trkpt>
      <trkpt lat="50.56838" lon="3.47544">
        <ele>44.597958</ele>
        <time>2021-05-26T20:29:46.678Z</time>
      </trkpt>
      <trkpt lat="50.5682" lon="3.47528">
        <ele>44.39707</ele>
        <time>2021-05-26T20:29:49.277Z</time>
      </trkpt>
      <trkpt lat="50.56815" lon="3.47518">
        <ele>44.318338</ele>
        <time>2021-05-26T20:29:50.184Z</time>
      </trkpt>
      <trkpt lat="50.56812" lon="3.47507">
        <ele>44.240173</ele>
        <time>2021-05-26T20:29:51.234Z</time>
      </trkpt>
      <trkpt lat="50.56807" lon="3.47489">
        <ele>44.120507</ele>
        <time>2021-05-26T20:29:52.790Z</time>
      </trkpt>
      <trkpt lat="50.56774" lon="3.47365">
        <ele>43.590881</ele>
        <time>2021-05-26T20:30:03.397Z</time>
      </trkpt>
      <trkpt lat="50.56769" lon="3.47349">
        <ele>43.522917</ele>
        <time>2021-05-26T20:30:04.857Z</time>
      </trkpt>
      <trkpt lat="50.56732" lon="3.47191">
        <ele>42.914114</ele>
        <time>2021-05-26T20:30:19.474Z</time>
      </trkpt>
      <trkpt lat="50.56742" lon="3.47048">
        <ele>42.541233</ele>
        <time>2021-05-26T20:30:32.368Z</time>
      </trkpt>
      <trkpt lat="50.56742" lon="3.46947">
        <ele>42.281584</ele>
        <time>2021-05-26T20:30:40.868Z</time>
      </trkpt>
      <trkpt lat="50.56717" lon="3.46782">
        <ele>41.41174</ele>
        <time>2021-05-26T20:30:54.300Z</time>
      </trkpt>
      <trkpt lat="50.56713" lon="3.46753">
        <ele>41.255718</ele>
        <time>2021-05-26T20:30:56.566Z</time>
      </trkpt>
      <trkpt lat="50.56699" lon="3.46663">
        <ele>40.782892</ele>
        <time>2021-05-26T20:31:03.951Z</time>
      </trkpt>
      <trkpt lat="50.56694" lon="3.46624">
        <ele>40.742204</ele>
        <time>2021-05-26T20:31:07.239Z</time>
      </trkpt>
      <trkpt lat="50.56691" lon="3.4661">
        <ele>40.72798</ele>
        <time>2021-05-26T20:31:08.508Z</time>
      </trkpt>
      <trkpt lat="50.56689" lon="3.46595">
        <ele>40.712918</ele>
        <time>2021-05-26T20:31:09.715Z</time>
      </trkpt>
      <trkpt lat="50.56686" lon="3.46567">
        <ele>40.684555</ele>
        <time>2021-05-26T20:31:12.201Z</time>
      </trkpt>
      <trkpt lat="50.5668" lon="3.46522">
        <ele>40.638622</ele>
        <time>2021-05-26T20:31:16.308Z</time>
      </trkpt>
      <trkpt lat="50.56675" lon="3.46474">
        <ele>40.589843</ele>
        <time>2021-05-26T20:31:21.026Z</time>
      </trkpt>
      <trkpt lat="50.56671" lon="3.46437">
        <ele>40.552597</ele>
        <time>2021-05-26T20:31:24.677Z</time>
      </trkpt>
      <trkpt lat="50.56668" lon="3.46401">
        <ele>40.515351</ele>
        <time>2021-05-26T20:31:28.257Z</time>
      </trkpt>
      <trkpt lat="50.56664" lon="3.46351">
        <ele>40.525408</ele>
        <time>2021-05-26T20:31:33.595Z</time>
      </trkpt>
      <trkpt lat="50.56661" lon="3.46326">
        <ele>40.542581</ele>
        <time>2021-05-26T20:31:36.493Z</time>
      </trkpt>
      <trkpt lat="50.5666" lon="3.46305">
        <ele>40.556276</ele>
        <time>2021-05-26T20:31:38.631Z</time>
      </trkpt>
      <trkpt lat="50.56659" lon="3.46275">
        <ele>40.575792</ele>
        <time>2021-05-26T20:31:41.798Z</time>
      </trkpt>
      <trkpt lat="50.56659" lon="3.46263">
        <ele>40.584246</ele>
        <time>2021-05-26T20:31:43.071Z</time>
      </trkpt>
      <trkpt lat="50.56658" lon="3.46245">
        <ele>40.596071</ele>
        <time>2021-05-26T20:31:44.834Z</time>
      </trkpt>
      <trkpt lat="50.56658" lon="3.46212">
        <ele>40.617911</ele>
        <time>2021-05-26T20:31:48.229Z</time>
      </trkpt>
      <trkpt lat="50.56658" lon="3.46128">
        <ele>40.672865</ele>
        <time>2021-05-26T20:31:55.989Z</time>
      </trkpt>
      <trkpt lat="50.5666" lon="3.46104">
        <ele>40.682934</ele>
        <time>2021-05-26T20:31:58.272Z</time>
      </trkpt>
      <trkpt lat="50.56665" lon="3.46009">
        <ele>40.224359</ele>
        <time>2021-05-26T20:32:06.037Z</time>
      </trkpt>
      <trkpt lat="50.5668" lon="3.45879">
        <ele>39.586315</ele>
        <time>2021-05-26T20:32:16.550Z</time>
      </trkpt>
      <trkpt lat="50.56703" lon="3.45751">
        <ele>38.891251</ele>
        <time>2021-05-26T20:32:26.900Z</time>
      </trkpt>
      <trkpt lat="50.56729" lon="3.45649">
        <ele>38.296204</ele>
        <time>2021-05-26T20:32:35.524Z</time>
      </trkpt>
      <trkpt lat="50.5676" lon="3.4556">
        <ele>37.76221</ele>
        <time>2021-05-26T20:32:43.751Z</time>
      </trkpt>
      <trkpt lat="50.56801" lon="3.45471">
        <ele>37.481644</ele>
        <time>2021-05-26T20:32:52.959Z</time>
      </trkpt>
      <trkpt lat="50.56816" lon="3.45441">
        <ele>37.382271</ele>
        <time>2021-05-26T20:32:56.333Z</time>
      </trkpt>
      <trkpt lat="50.56902" lon="3.45289">
        <ele>36.842855</ele>
        <time>2021-05-26T20:33:14.419Z</time>
      </trkpt>
      <trkpt lat="50.56938" lon="3.45231">
        <ele>36.615518</ele>
        <time>2021-05-26T20:33:21.582Z</time>
      </trkpt>
      <trkpt lat="50.56981" lon="3.45174">
        <ele>36.368661</ele>
        <time>2021-05-26T20:33:29.059Z</time>
      </trkpt>
      <trkpt lat="50.57124" lon="3.45032">
        <ele>35.019122</ele>
        <time>2021-05-26T20:33:50.194Z</time>
      </trkpt>
      <trkpt lat="50.57171" lon="3.44955">
        <ele>34.08112</ele>
        <time>2021-05-26T20:33:58.446Z</time>
      </trkpt>
      <trkpt lat="50.57181" lon="3.44928">
        <ele>33.67796</ele>
        <time>2021-05-26T20:34:00.879Z</time>
      </trkpt>
      <trkpt lat="50.5719" lon="3.44905">
        <ele>33.343411</ele>
        <time>2021-05-26T20:34:02.971Z</time>
      </trkpt>
      <trkpt lat="50.57198" lon="3.44879">
        <ele>32.972527</ele>
        <time>2021-05-26T20:34:05.198Z</time>
      </trkpt>
      <trkpt lat="50.57205" lon="3.4484">
        <ele>32.460206</ele>
        <time>2021-05-26T20:34:08.123Z</time>
      </trkpt>
      <trkpt lat="50.57218" lon="3.44657">
        <ele>29.260401</ele>
        <time>2021-05-26T20:34:20.020Z</time>
      </trkpt>
      <trkpt lat="50.57221" lon="3.44621">
        <ele>28.408849</ele>
        <time>2021-05-26T20:34:22.257Z</time>
      </trkpt>
      <trkpt lat="50.57225" lon="3.44559">
        <ele>26.932397</ele>
        <time>2021-05-26T20:34:26.101Z</time>
      </trkpt>
      <trkpt lat="50.57228" lon="3.44525">
        <ele>26.1058</ele>
        <time>2021-05-26T20:34:28.226Z</time>
      </trkpt>
      <trkpt lat="50.57238" lon="3.44444">
        <ele>24.260694</ele>
        <time>2021-05-26T20:34:33.463Z</time>
      </trkpt>
      <trkpt lat="50.57241" lon="3.44436">
        <ele>24.135704</ele>
        <time>2021-05-26T20:34:33.961Z</time>
      </trkpt>
      <trkpt lat="50.57243" lon="3.44435">
        <ele>24.080445</ele>
        <time>2021-05-26T20:34:34.181Z</time>
      </trkpt>
      <trkpt lat="50.57249" lon="3.44428">
        <ele>23.91209</ele>
        <time>2021-05-26T20:34:34.989Z</time>
      </trkpt>
      <trkpt lat="50.57252" lon="3.44422">
        <ele>23.803256</ele>
        <time>2021-05-26T20:34:35.467Z</time>
      </trkpt>
      <trkpt lat="50.57254" lon="3.44419">
        <ele>23.744032</ele>
        <time>2021-05-26T20:34:35.719Z</time>
      </trkpt>
      <trkpt lat="50.57255" lon="3.44396">
        <ele>23.412464</ele>
        <time>2021-05-26T20:34:37.244Z</time>
      </trkpt>
      <trkpt lat="50.57252" lon="3.44385">
        <ele>23.244217</ele>
        <time>2021-05-26T20:34:37.932Z</time>
      </trkpt>
      <trkpt lat="50.57246" lon="3.44377">
        <ele>23.075839</ele>
        <time>2021-05-26T20:34:38.790Z</time>
      </trkpt>
      <trkpt lat="50.57232" lon="3.44371">
        <ele>22.744663</ele>
        <time>2021-05-26T20:34:40.370Z</time>
      </trkpt>
      <trkpt lat="50.57221" lon="3.44378">
        <ele>22.474789</ele>
        <time>2021-05-26T20:34:41.525Z</time>
      </trkpt>
      <trkpt lat="50.57217" lon="3.44385">
        <ele>22.324037</ele>
        <time>2021-05-26T20:34:42.392Z</time>
      </trkpt>
      <trkpt lat="50.57202" lon="3.44368">
        <ele>21.900853</ele>
        <time>2021-05-26T20:34:44.611Z</time>
      </trkpt>
      <trkpt lat="50.57126" lon="3.44364">
        <ele>20.362432</ele>
        <time>2021-05-26T20:34:53.509Z</time>
      </trkpt>
      <trkpt lat="50.5707" lon="3.44371">
        <ele>20.19466</ele>
        <time>2021-05-26T20:35:01.526Z</time>
      </trkpt>
      <trkpt lat="50.57047" lon="3.44376">
        <ele>20.123953</ele>
        <time>2021-05-26T20:35:04.690Z</time>
      </trkpt>
      <trkpt lat="50.57037" lon="3.44381">
        <ele>20.092309</ele>
        <time>2021-05-26T20:35:06.113Z</time>
      </trkpt>
      <trkpt lat="50.56976" lon="3.44409">
        <ele>19.901996</ele>
        <time>2021-05-26T20:35:14.899Z</time>
      </trkpt>
      <trkpt lat="50.56944" lon="3.44418">
        <ele>20.079535</ele>
        <time>2021-05-26T20:35:20.113Z</time>
      </trkpt>
      <trkpt lat="50.56916" lon="3.44427">
        <ele>20.510762</ele>
        <time>2021-05-26T20:35:25.080Z</time>
      </trkpt>
      <trkpt lat="50.56893" lon="3.44434">
        <ele>20.874816</ele>
        <time>2021-05-26T20:35:29.607Z</time>
      </trkpt>
      <trkpt lat="50.56885" lon="3.44439">
        <ele>21.005513</ele>
        <time>2021-05-26T20:35:31.239Z</time>
      </trkpt>
      <trkpt lat="50.56874" lon="3.4445">
        <ele>21.20803</ele>
        <time>2021-05-26T20:35:34.310Z</time>
      </trkpt>
      <trkpt lat="50.56851" lon="3.44472">
        <ele>21.621574</ele>
        <time>2021-05-26T20:35:39.678Z</time>
      </trkpt>
      <trkpt lat="50.56856" lon="3.44507">
        <ele>21.974841</ele>
        <time>2021-05-26T20:35:46.212Z</time>
      </trkpt>
      <trkpt lat="50.56859" lon="3.44525">
        <ele>22.153227</ele>
        <time>2021-05-26T20:35:49.258Z</time>
      </trkpt>
      <trkpt lat="50.56859" lon="3.44529">
        <ele>22.195831</ele>
        <time>2021-05-26T20:35:49.987Z</time>
      </trkpt>
      <trkpt lat="50.56858" lon="3.44558">
        <ele>22.481311</ele>
        <time>2021-05-26T20:35:55.552Z</time>
      </trkpt>
      <trkpt lat="50.56849" lon="3.44609">
        <ele>23.53337</ele>
        <time>2021-05-26T20:36:06.251Z</time>
      </trkpt>
      <trkpt lat="50.5684" lon="3.44623">
        <ele>24.000645</ele>
        <time>2021-05-26T20:36:10.270Z</time>
      </trkpt>
      <trkpt lat="50.56838" lon="3.44627">
        <ele>24.133944</ele>
        <time>2021-05-26T20:36:11.537Z</time>
      </trkpt>
      <trkpt lat="50.56839" lon="3.44628">
        <ele>24.181025</ele>
        <time>2021-05-26T20:36:11.913Z</time>
      </trkpt>
      <trkpt lat="50.56839" lon="3.44632">
        <ele>24.272815</ele>
        <time>2021-05-26T20:36:12.651Z</time>
      </trkpt>
      <trkpt lat="50.56839" lon="3.4464">
        <ele>24.457989</ele>
        <time>2021-05-26T20:36:14.521Z</time>
      </trkpt>
      <trkpt lat="50.56808" lon="3.44779">
        <ele>27.993785</ele>
        <time>2021-05-26T20:36:44.155Z</time>
      </trkpt>
      <trkpt lat="50.56806" lon="3.44794">
        <ele>28.368877</ele>
        <time>2021-05-26T20:36:47.582Z</time>
      </trkpt>
      <trkpt lat="50.568" lon="3.44821">
        <ele>29.058471</ele>
        <time>2021-05-26T20:36:53.191Z</time>
      </trkpt>
      <trkpt lat="50.56797" lon="3.44836">
        <ele>29.425038</ele>
        <time>2021-05-26T20:36:56.051Z</time>
      </trkpt>
      <trkpt lat="50.56785" lon="3.44894">
        <ele>30.797465</ele>
        <time>2021-05-26T20:37:07.911Z</time>
      </trkpt>
      <trkpt lat="50.56777" lon="3.44929">
        <ele>31.628726</ele>
        <time>2021-05-26T20:37:14.976Z</time>
      </trkpt>
      <trkpt lat="50.56772" lon="3.44953">
        <ele>32.180252</ele>
        <time>2021-05-26T20:37:19.966Z</time>
      </trkpt>
      <trkpt lat="50.56772" lon="3.4497">
        <ele>32.57355</ele>
        <time>2021-05-26T20:37:23.279Z</time>
      </trkpt>
      <trkpt lat="50.56771" lon="3.44976">
        <ele>32.695419</ele>
        <time>2021-05-26T20:37:24.268Z</time>
      </trkpt>
      <trkpt lat="50.5677" lon="3.44998">
        <ele>33.205472</ele>
        <time>2021-05-26T20:37:28.608Z</time>
      </trkpt>
      <trkpt lat="50.56768" lon="3.45008">
        <ele>33.437595</ele>
        <time>2021-05-26T20:37:30.755Z</time>
      </trkpt>
      <trkpt lat="50.56753" lon="3.45073">
        <ele>34.961145</ele>
        <time>2021-05-26T20:37:43.289Z</time>
      </trkpt>
      <trkpt lat="50.56742" lon="3.45119">
        <ele>35.895201</ele>
        <time>2021-05-26T20:37:51.416Z</time>
      </trkpt>
      <trkpt lat="50.56736" lon="3.45141">
        <ele>36.134351</ele>
        <time>2021-05-26T20:37:55.313Z</time>
      </trkpt>
      <trkpt lat="50.56734" lon="3.4516">
        <ele>36.328624</ele>
        <time>2021-05-26T20:37:58.132Z</time>
      </trkpt>
      <trkpt lat="50.56726" lon="3.45246">
        <ele>37.186746</ele>
        <time>2021-05-26T20:38:08.594Z</time>
      </trkpt>
      <trkpt lat="50.56725" lon="3.45255">
        <ele>37.281025</ele>
        <time>2021-05-26T20:38:10.034Z</time>
      </trkpt>
      <trkpt lat="50.56721" lon="3.45288">
        <ele>37.615384</ele>
        <time>2021-05-26T20:38:14.033Z</time>
      </trkpt>
      <trkpt lat="50.56717" lon="3.45305">
        <ele>37.797171</ele>
        <time>2021-05-26T20:38:16.313Z</time>
      </trkpt>
      <trkpt lat="50.56692" lon="3.45358">
        <ele>38.451424</ele>
        <time>2021-05-26T20:38:24.729Z</time>
      </trkpt>
      <trkpt lat="50.56687" lon="3.45375">
        <ele>38.602813</ele>
        <time>2021-05-26T20:38:27.098Z</time>
      </trkpt>
      <trkpt lat="50.56678" lon="3.45402">
        <ele>38.766598</ele>
        <time>2021-05-26T20:38:30.768Z</time>
      </trkpt>
      <trkpt lat="50.56672" lon="3.45419">
        <ele>38.862924</ele>
        <time>2021-05-26T20:38:32.923Z</time>
      </trkpt>
      <trkpt lat="50.56666" lon="3.45446">
        <ele>39.017161</ele>
        <time>2021-05-26T20:38:36.285Z</time>
      </trkpt>
      <trkpt lat="50.56661" lon="3.45471">
        <ele>39.155495</ele>
        <time>2021-05-26T20:38:40.436Z</time>
      </trkpt>
      <trkpt lat="50.56653" lon="3.45477">
        <ele>39.22934</ele>
        <time>2021-05-26T20:38:42.625Z</time>
      </trkpt>
      <trkpt lat="50.56627" lon="3.45504">
        <ele>39.478459</ele>
        <time>2021-05-26T20:38:49.478Z</time>
      </trkpt>
      <trkpt lat="50.56598" lon="3.45542">
        <ele>39.793958</ele>
        <time>2021-05-26T20:38:58.233Z</time>
      </trkpt>
      <trkpt lat="50.56555" lon="3.45587">
        <ele>40.005742</ele>
        <time>2021-05-26T20:39:10.135Z</time>
      </trkpt>
      <trkpt lat="50.56503" lon="3.45627">
        <ele>39.870995</ele>
        <time>2021-05-26T20:39:22.970Z</time>
      </trkpt>
      <trkpt lat="50.56434" lon="3.45663">
        <ele>39.699351</ele>
        <time>2021-05-26T20:39:37.030Z</time>
      </trkpt>
      <trkpt lat="50.56377" lon="3.45679">
        <ele>38.959269</ele>
        <time>2021-05-26T20:39:46.476Z</time>
      </trkpt>
      <trkpt lat="50.56276" lon="3.45672">
        <ele>36.593368</ele>
        <time>2021-05-26T20:40:02.014Z</time>
      </trkpt>
      <trkpt lat="50.56271" lon="3.45671">
        <ele>36.477983</ele>
        <time>2021-05-26T20:40:02.686Z</time>
      </trkpt>
      <trkpt lat="50.56242" lon="3.45665">
        <ele>35.795313</ele>
        <time>2021-05-26T20:40:07.089Z</time>
      </trkpt>
      <trkpt lat="50.56219" lon="3.45658">
        <ele>35.195148</ele>
        <time>2021-05-26T20:40:10.500Z</time>
      </trkpt>
      <trkpt lat="50.56192" lon="3.45645">
        <ele>34.349823</ele>
        <time>2021-05-26T20:40:14.681Z</time>
      </trkpt>
      <trkpt lat="50.56183" lon="3.45645">
        <ele>34.085899</ele>
        <time>2021-05-26T20:40:15.923Z</time>
      </trkpt>
      <trkpt lat="50.56113" lon="3.45588">
        <ele>31.730594</ele>
        <time>2021-05-26T20:40:27.345Z</time>
      </trkpt>
      <trkpt lat="50.56036" lon="3.45499">
        <ele>29.245351</ele>
        <time>2021-05-26T20:40:41.692Z</time>
      </trkpt>
      <trkpt lat="50.55983" lon="3.45415">
        <ele>27.690639</ele>
        <time>2021-05-26T20:40:53.689Z</time>
      </trkpt>
      <trkpt lat="50.55944" lon="3.45341">
        <ele>26.43542</ele>
        <time>2021-05-26T20:41:03.587Z</time>
      </trkpt>
      <trkpt lat="50.55884" lon="3.45227">
        <ele>24.933048</ele>
        <time>2021-05-26T20:41:18.733Z</time>
      </trkpt>
      <trkpt lat="50.55881" lon="3.45224">
        <ele>24.879616</ele>
        <time>2021-05-26T20:41:19.318Z</time>
      </trkpt>
      <trkpt lat="50.55864" lon="3.45204">
        <ele>24.545467</ele>
        <time>2021-05-26T20:41:22.745Z</time>
      </trkpt>
      <trkpt lat="50.55848" lon="3.45168">
        <ele>24.103944</ele>
        <time>2021-05-26T20:41:27.385Z</time>
      </trkpt>
      <trkpt lat="50.55834" lon="3.45138">
        <ele>23.729268</ele>
        <time>2021-05-26T20:41:31.334Z</time>
      </trkpt>
      <trkpt lat="50.55822" lon="3.4511">
        <ele>23.433972</ele>
        <time>2021-05-26T20:41:34.764Z</time>
      </trkpt>
      <trkpt lat="50.55491" lon="3.44473">
        <ele>18.207615</ele>
        <time>2021-05-26T20:43:05.565Z</time>
      </trkpt>
      <trkpt lat="50.55466" lon="3.44422">
        <ele>18.147238</ele>
        <time>2021-05-26T20:43:13.341Z</time>
      </trkpt>
      <trkpt lat="50.55321" lon="3.44143">
        <ele>18.897474</ele>
        <time>2021-05-26T20:44:02.414Z</time>
      </trkpt>
      <trkpt lat="50.55314" lon="3.4413">
        <ele>18.986441</ele>
        <time>2021-05-26T20:44:05.140Z</time>
      </trkpt>
      <trkpt lat="50.55219" lon="3.43942">
        <ele>19.793248</ele>
        <time>2021-05-26T20:44:43.470Z</time>
      </trkpt>
      <trkpt lat="50.55205" lon="3.43912">
        <ele>19.83144</ele>
        <time>2021-05-26T20:44:49.056Z</time>
      </trkpt>
      <trkpt lat="50.55178" lon="3.43855">
        <ele>19.905184</ele>
        <time>2021-05-26T20:44:58.305Z</time>
      </trkpt>
      <trkpt lat="50.55131" lon="3.43732">
        <ele>19.236828</ele>
        <time>2021-05-26T20:45:13.698Z</time>
      </trkpt>
      <trkpt lat="50.55118" lon="3.43698">
        <ele>18.827678</ele>
        <time>2021-05-26T20:45:17.553Z</time>
      </trkpt>
      <trkpt lat="50.55079" lon="3.43585">
        <ele>17.472158</ele>
        <time>2021-05-26T20:45:30.547Z</time>
      </trkpt>
      <trkpt lat="50.55077" lon="3.43577">
        <ele>17.37861</ele>
        <time>2021-05-26T20:45:31.431Z</time>
      </trkpt>
      <trkpt lat="50.55069" lon="3.43555">
        <ele>17.1121</ele>
        <time>2021-05-26T20:45:33.970Z</time>
      </trkpt>
      <trkpt lat="50.55044" lon="3.43487">
        <ele>16.79428</ele>
        <time>2021-05-26T20:45:50.280Z</time>
      </trkpt>
      <trkpt lat="50.55034" lon="3.43459">
        <ele>16.697483</ele>
        <time>2021-05-26T20:45:53.776Z</time>
      </trkpt>
      <trkpt lat="50.55007" lon="3.43383">
        <ele>16.435535</ele>
        <time>2021-05-26T20:46:04.207Z</time>
      </trkpt>
      <trkpt lat="50.54996" lon="3.43353">
        <ele>16.330058</ele>
        <time>2021-05-26T20:46:08.838Z</time>
      </trkpt>
      <trkpt lat="50.54986" lon="3.43325">
        <ele>16.233454</ele>
        <time>2021-05-26T20:46:13.480Z</time>
      </trkpt>
      <trkpt lat="50.5496" lon="3.4324">
        <ele>16.438055</ele>
        <time>2021-05-26T20:46:27.381Z</time>
      </trkpt>
      <trkpt lat="50.54933" lon="3.43129">
        <ele>16.976042</ele>
        <time>2021-05-26T20:46:45.236Z</time>
      </trkpt>
      <trkpt lat="50.54919" lon="3.43042">
        <ele>17.377291</ele>
        <time>2021-05-26T20:46:58.215Z</time>
      </trkpt>
      <trkpt lat="50.54916" lon="3.43027">
        <ele>17.443853</ele>
        <time>2021-05-26T20:47:00.637Z</time>
      </trkpt>
      <trkpt lat="50.54917" lon="3.43024">
        <ele>17.459962</ele>
        <time>2021-05-26T20:47:01.289Z</time>
      </trkpt>
      <trkpt lat="50.5493" lon="3.4301">
        <ele>17.547124</ele>
        <time>2021-05-26T20:47:04.741Z</time>
      </trkpt>
      <trkpt lat="50.5493" lon="3.43007">
        <ele>17.559797</ele>
        <time>2021-05-26T20:47:05.227Z</time>
      </trkpt>
      <trkpt lat="50.54928" lon="3.42995">
        <ele>17.601296</ele>
        <time>2021-05-26T20:47:06.886Z</time>
      </trkpt>
      <trkpt lat="50.54928" lon="3.42989">
        <ele>17.623557</ele>
        <time>2021-05-26T20:47:07.834Z</time>
      </trkpt>
      <trkpt lat="50.54927" lon="3.42986">
        <ele>17.635975</ele>
        <time>2021-05-26T20:47:08.372Z</time>
      </trkpt>
      <trkpt lat="50.54924" lon="3.42982">
        <ele>17.659338</ele>
        <time>2021-05-26T20:47:09.343Z</time>
      </trkpt>
      <trkpt lat="50.54892" lon="3.42968">
        <ele>17.847894</ele>
        <time>2021-05-26T20:47:16.800Z</time>
      </trkpt>
      <trkpt lat="50.54884" lon="3.42963">
        <ele>17.896443</ele>
        <time>2021-05-26T20:47:18.645Z</time>
      </trkpt>
      <trkpt lat="50.54883" lon="3.42959">
        <ele>17.912496</ele>
        <time>2021-05-26T20:47:19.364Z</time>
      </trkpt>
      <trkpt lat="50.54868" lon="3.42915">
        <ele>18.091238</ele>
        <time>2021-05-26T20:47:26.365Z</time>
      </trkpt>
      <trkpt lat="50.54852" lon="3.42894">
        <ele>18.21228</ele>
        <time>2021-05-26T20:47:31.043Z</time>
      </trkpt>
      <trkpt lat="50.54834" lon="3.42842">
        <ele>18.42319</ele>
        <time>2021-05-26T20:47:39.418Z</time>
      </trkpt>
      <trkpt lat="50.54829" lon="3.42835">
        <ele>18.463441</ele>
        <time>2021-05-26T20:47:41.028Z</time>
      </trkpt>
      <trkpt lat="50.54825" lon="3.42831">
        <ele>18.492076</ele>
        <time>2021-05-26T20:47:42.019Z</time>
      </trkpt>
      <trkpt lat="50.54812" lon="3.4282">
        <ele>18.580853</ele>
        <time>2021-05-26T20:47:45.278Z</time>
      </trkpt>
      <trkpt lat="50.54808" lon="3.4282">
        <ele>18.610497</ele>
        <time>2021-05-26T20:47:46.256Z</time>
      </trkpt>
      <trkpt lat="50.54805" lon="3.42825">
        <ele>18.635946</ele>
        <time>2021-05-26T20:47:47.118Z</time>
      </trkpt>
      <trkpt lat="50.54803" lon="3.42821">
        <ele>18.659224</ele>
        <time>2021-05-26T20:47:47.830Z</time>
      </trkpt>
      <trkpt lat="50.54727" lon="3.42699">
        <ele>19.328048</ele>
        <time>2021-05-26T20:48:06.557Z</time>
      </trkpt>
      <trkpt lat="50.54666" lon="3.42642">
        <ele>19.73479</ele>
        <time>2021-05-26T20:48:19.136Z</time>
      </trkpt>
      <trkpt lat="50.54574" lon="3.42585">
        <ele>20.257288</ele>
        <time>2021-05-26T20:48:36.376Z</time>
      </trkpt>
      <trkpt lat="50.5447" lon="3.42541">
        <ele>20.410384</ele>
        <time>2021-05-26T20:48:53.577Z</time>
      </trkpt>
      <trkpt lat="50.5441" lon="3.42516">
        <ele>20.319895</ele>
        <time>2021-05-26T20:49:02.348Z</time>
      </trkpt>
      <trkpt lat="50.5424" lon="3.42433">
        <ele>19.527725</ele>
        <time>2021-05-26T20:49:25.302Z</time>
      </trkpt>
      <trkpt lat="50.54235" lon="3.42431">
        <ele>19.494209</ele>
        <time>2021-05-26T20:49:25.990Z</time>
      </trkpt>
      <trkpt lat="50.54233" lon="3.42428">
        <ele>19.47808</ele>
        <time>2021-05-26T20:49:26.279Z</time>
      </trkpt>
      <trkpt lat="50.54078" lon="3.4237">
        <ele>19.211514</ele>
        <time>2021-05-26T20:49:48.149Z</time>
      </trkpt>
      <trkpt lat="50.53973" lon="3.42348">
        <ele>19.472583</ele>
        <time>2021-05-26T20:50:06.218Z</time>
      </trkpt>
      <trkpt lat="50.53968" lon="3.42348">
        <ele>19.50475</ele>
        <time>2021-05-26T20:50:07.186Z</time>
      </trkpt>
      <trkpt lat="50.53965" lon="3.42346">
        <ele>19.529988</ele>
        <time>2021-05-26T20:50:07.972Z</time>
      </trkpt>
      <trkpt lat="50.53907" lon="3.42331">
        <ele>19.928286</ele>
        <time>2021-05-26T20:50:18.078Z</time>
      </trkpt>
      <trkpt lat="50.53826" lon="3.42315">
        <ele>20.492808</ele>
        <time>2021-05-26T20:50:32.857Z</time>
      </trkpt>
      <trkpt lat="50.53725" lon="3.42291">
        <ele>21.244084</ele>
        <time>2021-05-26T20:50:50.443Z</time>
      </trkpt>
      <trkpt lat="50.53576" lon="3.42263">
        <ele>22.757369</ele>
        <time>2021-05-26T20:51:17.915Z</time>
      </trkpt>
      <trkpt lat="50.53478" lon="3.42237">
        <ele>24.00267</ele>
        <time>2021-05-26T20:51:38.655Z</time>
      </trkpt>
      <trkpt lat="50.53342" lon="3.42208">
        <ele>26.311788</ele>
        <time>2021-05-26T20:52:09.165Z</time>
      </trkpt>
      <trkpt lat="50.53268" lon="3.42193">
        <ele>27.271122</ele>
        <time>2021-05-26T20:52:24.643Z</time>
      </trkpt>
      <trkpt lat="50.53265" lon="3.42192">
        <ele>27.289512</ele>
        <time>2021-05-26T20:52:25.231Z</time>
      </trkpt>
      <trkpt lat="50.53254" lon="3.42189">
        <ele>27.354407</ele>
        <time>2021-05-26T20:52:27.871Z</time>
      </trkpt>
      <trkpt lat="50.53217" lon="3.42181">
        <ele>27.585133</ele>
        <time>2021-05-26T20:52:36.995Z</time>
      </trkpt>
      <trkpt lat="50.5289" lon="3.42111">
        <ele>28.367393</ele>
        <time>2021-05-26T20:53:44.890Z</time>
      </trkpt>
      <trkpt lat="50.52836" lon="3.42099">
        <ele>28.385988</ele>
        <time>2021-05-26T20:53:55.832Z</time>
      </trkpt>
      <trkpt lat="50.52752" lon="3.4208">
        <ele>28.41111</ele>
        <time>2021-05-26T20:54:13.133Z</time>
      </trkpt>
      <trkpt lat="50.52597" lon="3.42045">
        <ele>28.405267</ele>
        <time>2021-05-26T20:54:45.290Z</time>
      </trkpt>
      <trkpt lat="50.52521" lon="3.42029">
        <ele>28.089765</ele>
        <time>2021-05-26T20:54:59.771Z</time>
      </trkpt>
      <trkpt lat="50.52437" lon="3.42011">
        <ele>27.66047</ele>
        <time>2021-05-26T20:55:15.482Z</time>
      </trkpt>
      <trkpt lat="50.52365" lon="3.41989">
        <ele>27.05165</ele>
        <time>2021-05-26T20:55:28.660Z</time>
      </trkpt>
      <trkpt lat="50.52283" lon="3.41973">
        <ele>26.160188</ele>
        <time>2021-05-26T20:55:42.867Z</time>
      </trkpt>
      <trkpt lat="50.52273" lon="3.41971">
        <ele>26.049259</ele>
        <time>2021-05-26T20:55:44.590Z</time>
      </trkpt>
      <trkpt lat="50.52246" lon="3.41966">
        <ele>25.756858</ele>
        <time>2021-05-26T20:55:49.211Z</time>
      </trkpt>
      <trkpt lat="50.52169" lon="3.4195">
        <ele>24.87114</ele>
        <time>2021-05-26T20:56:01.996Z</time>
      </trkpt>
      <trkpt lat="50.52105" lon="3.41935">
        <ele>24.122201</ele>
        <time>2021-05-26T20:56:12.949Z</time>
      </trkpt>
      <trkpt lat="50.52093" lon="3.41932">
        <ele>23.98257</ele>
        <time>2021-05-26T20:56:14.838Z</time>
      </trkpt>
      <trkpt lat="50.52079" lon="3.41929">
        <ele>23.821062</ele>
        <time>2021-05-26T20:56:17.319Z</time>
      </trkpt>
      <trkpt lat="50.52048" lon="3.41921">
        <ele>23.476794</ele>
        <time>2021-05-26T20:56:22.658Z</time>
      </trkpt>
      <trkpt lat="50.52017" lon="3.41913">
        <ele>23.512933</ele>
        <time>2021-05-26T20:56:28.524Z</time>
      </trkpt>
      <trkpt lat="50.51906" lon="3.41912">
        <ele>23.641333</ele>
        <time>2021-05-26T20:56:52.058Z</time>
      </trkpt>
      <trkpt lat="50.51886" lon="3.41916">
        <ele>23.663899</ele>
        <time>2021-05-26T20:56:56.473Z</time>
      </trkpt>
      <trkpt lat="50.5188" lon="3.41917">
        <ele>23.670815</ele>
        <time>2021-05-26T20:56:57.813Z</time>
      </trkpt>
      <trkpt lat="50.51872" lon="3.41918">
        <ele>23.68041</ele>
        <time>2021-05-26T20:56:59.984Z</time>
      </trkpt>
      <trkpt lat="50.51736" lon="3.41927">
        <ele>24.813148</ele>
        <time>2021-05-26T20:57:32.770Z</time>
      </trkpt>
      <trkpt lat="50.51727" lon="3.41926">
        <ele>24.891697</ele>
        <time>2021-05-26T20:57:35.204Z</time>
      </trkpt>
      <trkpt lat="50.51713" lon="3.41925">
        <ele>25.006546</ele>
        <time>2021-05-26T20:57:38.501Z</time>
      </trkpt>
      <trkpt lat="50.5151" lon="3.41926">
        <ele>25.8059</ele>
        <time>2021-05-26T20:58:22.770Z</time>
      </trkpt>
      <trkpt lat="50.51487" lon="3.41945">
        <ele>25.643433</ele>
        <time>2021-05-26T20:58:27.778Z</time>
      </trkpt>
      <trkpt lat="50.51481" lon="3.4195">
        <ele>25.605727</ele>
        <time>2021-05-26T20:58:28.898Z</time>
      </trkpt>
      <trkpt lat="50.51465" lon="3.41959">
        <ele>25.496976</ele>
        <time>2021-05-26T20:58:32.153Z</time>
      </trkpt>
      <trkpt lat="50.51437" lon="3.4197">
        <ele>25.316968</ele>
        <time>2021-05-26T20:58:37.523Z</time>
      </trkpt>
      <trkpt lat="50.51422" lon="3.41972">
        <ele>25.226485</ele>
        <time>2021-05-26T20:58:40.153Z</time>
      </trkpt>
      <trkpt lat="50.51384" lon="3.41976">
        <ele>24.986766</ele>
        <time>2021-05-26T20:58:47.042Z</time>
      </trkpt>
      <trkpt lat="50.51309" lon="3.41999">
        <ele>24.410025</ele>
        <time>2021-05-26T20:59:00.182Z</time>
      </trkpt>
      <trkpt lat="50.51218" lon="3.42052">
        <ele>23.461903</ele>
        <time>2021-05-26T20:59:17.017Z</time>
      </trkpt>
      <trkpt lat="50.51129" lon="3.42133">
        <ele>22.555677</ele>
        <time>2021-05-26T20:59:34.974Z</time>
      </trkpt>
      <trkpt lat="50.51068" lon="3.42217">
        <ele>21.914016</ele>
        <time>2021-05-26T20:59:49.428Z</time>
      </trkpt>
      <trkpt lat="50.5106" lon="3.42232">
        <ele>21.815266</ele>
        <time>2021-05-26T20:59:51.610Z</time>
      </trkpt>
      <trkpt lat="50.51046" lon="3.4226">
        <ele>21.635608</ele>
        <time>2021-05-26T20:59:55.727Z</time>
      </trkpt>
      <trkpt lat="50.5105" lon="3.42275">
        <ele>21.556124</ele>
        <time>2021-05-26T20:59:57.551Z</time>
      </trkpt>
      <trkpt lat="50.51038" lon="3.42282">
        <ele>21.47555</ele>
        <time>2021-05-26T20:59:59.127Z</time>
      </trkpt>
      <trkpt lat="50.51025" lon="3.42289">
        <ele>21.4</ele>
        <time>2021-05-26T21:00:00.962Z</time>
      </trkpt>
      <trkpt lat="50.51021" lon="3.42292">
        <ele>21.375883</ele>
        <time>2021-05-26T21:00:01.532Z</time>
      </trkpt>
      <trkpt lat="50.51002" lon="3.42307">
        <ele>21.257684</ele>
        <time>2021-05-26T21:00:04.324Z</time>
      </trkpt>
      <trkpt lat="50.50987" lon="3.42321">
        <ele>21.166568</ele>
        <time>2021-05-26T21:00:06.578Z</time>
      </trkpt>
      <trkpt lat="50.50984" lon="3.42324">
        <ele>21.146785</ele>
        <time>2021-05-26T21:00:07.011Z</time>
      </trkpt>
      <trkpt lat="50.50931" lon="3.42378">
        <ele>20.799324</ele>
        <time>2021-05-26T21:00:15.471Z</time>
      </trkpt>
      <trkpt lat="50.50893" lon="3.42426">
        <ele>20.530028</ele>
        <time>2021-05-26T21:00:21.954Z</time>
      </trkpt>
      <trkpt lat="50.50684" lon="3.42741">
        <ele>19.078554</ele>
        <time>2021-05-26T21:01:00.679Z</time>
      </trkpt>
      <trkpt lat="50.50652" lon="3.4279">
        <ele>18.828133</ele>
        <time>2021-05-26T21:01:06.328Z</time>
      </trkpt>
      <trkpt lat="50.50633" lon="3.42818">
        <ele>18.68546</ele>
        <time>2021-05-26T21:01:09.520Z</time>
      </trkpt>
      <trkpt lat="50.50538" lon="3.42968">
        <ele>18.354595</ele>
        <time>2021-05-26T21:01:27.576Z</time>
      </trkpt>
      <trkpt lat="50.50529" lon="3.42984">
        <ele>18.320638</ele>
        <time>2021-05-26T21:01:29.487Z</time>
      </trkpt>
      <trkpt lat="50.50523" lon="3.42993">
        <ele>18.300345</ele>
        <time>2021-05-26T21:01:30.794Z</time>
      </trkpt>
      <trkpt lat="50.50517" lon="3.43003">
        <ele>18.277897</ele>
        <time>2021-05-26T21:01:32.557Z</time>
      </trkpt>
      <trkpt lat="50.50469" lon="3.43071">
        <ele>18.650864</ele>
        <time>2021-05-26T21:01:43.499Z</time>
      </trkpt>
      <trkpt lat="50.50406" lon="3.43154">
        <ele>19.30137</ele>
        <time>2021-05-26T21:01:58.762Z</time>
      </trkpt>
      <trkpt lat="50.50385" lon="3.43181">
        <ele>19.512563</ele>
        <time>2021-05-26T21:02:03.783Z</time>
      </trkpt>
      <trkpt lat="50.50376" lon="3.43191">
        <ele>19.599705</ele>
        <time>2021-05-26T21:02:05.938Z</time>
      </trkpt>
      <trkpt lat="50.50369" lon="3.43196">
        <ele>19.667226</ele>
        <time>2021-05-26T21:02:07.484Z</time>
      </trkpt>
      <trkpt lat="50.5036" lon="3.43202">
        <ele>19.786777</ele>
        <time>2021-05-26T21:02:09.195Z</time>
      </trkpt>
      <trkpt lat="50.50351" lon="3.432">
        <ele>19.919897</ele>
        <time>2021-05-26T21:02:11.109Z</time>
      </trkpt>
      <trkpt lat="50.50342" lon="3.432">
        <ele>20.032059</ele>
        <time>2021-05-26T21:02:12.728Z</time>
      </trkpt>
      <trkpt lat="50.50333" lon="3.43201">
        <ele>20.156002</ele>
        <time>2021-05-26T21:02:14.391Z</time>
      </trkpt>
      <trkpt lat="50.50323" lon="3.43204">
        <ele>20.29684</ele>
        <time>2021-05-26T21:02:16.360Z</time>
      </trkpt>
      <trkpt lat="50.50297" lon="3.43211">
        <ele>20.646648</ele>
        <time>2021-05-26T21:02:21.188Z</time>
      </trkpt>
      <trkpt lat="50.50292" lon="3.43213">
        <ele>20.722251</ele>
        <time>2021-05-26T21:02:22.215Z</time>
      </trkpt>
      <trkpt lat="50.50268" lon="3.43223">
        <ele>21.054533</ele>
        <time>2021-05-26T21:02:27.127Z</time>
      </trkpt>
      <trkpt lat="50.50204" lon="3.43255">
        <ele>21.96906</ele>
        <time>2021-05-26T21:02:41.348Z</time>
      </trkpt>
      <trkpt lat="50.50145" lon="3.43263">
        <ele>23.187153</ele>
        <time>2021-05-26T21:02:55.068Z</time>
      </trkpt>
      <trkpt lat="50.50139" lon="3.43264">
        <ele>23.326626</ele>
        <time>2021-05-26T21:02:56.774Z</time>
      </trkpt>
      <trkpt lat="50.50109" lon="3.43266">
        <ele>23.972845</ele>
        <time>2021-05-26T21:03:03.667Z</time>
      </trkpt>
      <trkpt lat="50.50048" lon="3.43272">
        <ele>25.334576</ele>
        <time>2021-05-26T21:03:18.530Z</time>
      </trkpt>
      <trkpt lat="50.50006" lon="3.43277">
        <ele>26.215669</ele>
        <time>2021-05-26T21:03:28.643Z</time>
      </trkpt>
      <trkpt lat="50.49982" lon="3.43285">
        <ele>26.628162</ele>
        <time>2021-05-26T21:03:34.810Z</time>
      </trkpt>
      <trkpt lat="50.49958" lon="3.43293">
        <ele>27.022001</ele>
        <time>2021-05-26T21:03:40.444Z</time>
      </trkpt>
      <trkpt lat="50.49883" lon="3.4333">
        <ele>28.325858</ele>
        <time>2021-05-26T21:03:57.576Z</time>
      </trkpt>
      <trkpt lat="50.49839" lon="3.43364">
        <ele>29.054433</ele>
        <time>2021-05-26T21:04:06.526Z</time>
      </trkpt>
      <trkpt lat="50.49777" lon="3.43415">
        <ele>29.132353</ele>
        <time>2021-05-26T21:04:18.450Z</time>
      </trkpt>
      <trkpt lat="50.49769" lon="3.43422">
        <ele>29.142517</ele>
        <time>2021-05-26T21:04:19.827Z</time>
      </trkpt>
      <trkpt lat="50.49756" lon="3.43431">
        <ele>29.158694</ele>
        <time>2021-05-26T21:04:22.147Z</time>
      </trkpt>
      <trkpt lat="50.49734" lon="3.43444">
        <ele>29.18427</ele>
        <time>2021-05-26T21:04:26.568Z</time>
      </trkpt>
      <trkpt lat="50.49652" lon="3.43489">
        <ele>29.093456</ele>
        <time>2021-05-26T21:04:42.854Z</time>
      </trkpt>
      <trkpt lat="50.49635" lon="3.435">
        <ele>28.992097</ele>
        <time>2021-05-26T21:04:46.244Z</time>
      </trkpt>
      <trkpt lat="50.49576" lon="3.43539">
        <ele>28.650783</ele>
        <time>2021-05-26T21:04:57.808Z</time>
      </trkpt>
      <trkpt lat="50.4956" lon="3.43546">
        <ele>28.560587</ele>
        <time>2021-05-26T21:05:00.035Z</time>
      </trkpt>
      <trkpt lat="50.49477" lon="3.43565">
        <ele>28.191613</ele>
        <time>2021-05-26T21:05:11.002Z</time>
      </trkpt>
      <trkpt lat="50.4929" lon="3.43541">
        <ele>27.557879</ele>
        <time>2021-05-26T21:05:37.551Z</time>
      </trkpt>
      <trkpt lat="50.49267" lon="3.43542">
        <ele>27.439761</ele>
        <time>2021-05-26T21:05:40.564Z</time>
      </trkpt>
      <trkpt lat="50.49218" lon="3.43548">
        <ele>27.177473</ele>
        <time>2021-05-26T21:05:47.156Z</time>
      </trkpt>
      <trkpt lat="50.49186" lon="3.4355">
        <ele>27.009514</ele>
        <time>2021-05-26T21:05:51.270Z</time>
      </trkpt>
      <trkpt lat="50.49169" lon="3.4355">
        <ele>26.917398</ele>
        <time>2021-05-26T21:05:53.480Z</time>
      </trkpt>
      <trkpt lat="50.4915" lon="3.43547">
        <ele>26.808407</ele>
        <time>2021-05-26T21:05:55.971Z</time>
      </trkpt>
      <trkpt lat="50.49135" lon="3.43542">
        <ele>26.597453</ele>
        <time>2021-05-26T21:05:57.778Z</time>
      </trkpt>
      <trkpt lat="50.49092" lon="3.43524">
        <ele>25.94799</ele>
        <time>2021-05-26T21:06:03.107Z</time>
      </trkpt>
      <trkpt lat="50.49043" lon="3.43502">
        <ele>25.204105</ele>
        <time>2021-05-26T21:06:09.016Z</time>
      </trkpt>
      <trkpt lat="50.48999" lon="3.43482">
        <ele>24.540226</ele>
        <time>2021-05-26T21:06:14.134Z</time>
      </trkpt>
      <trkpt lat="50.48969" lon="3.43467">
        <ele>24.086753</ele>
        <time>2021-05-26T21:06:17.500Z</time>
      </trkpt>
      <trkpt lat="50.48913" lon="3.43426">
        <ele>23.149589</ele>
        <time>2021-05-26T21:06:24.487Z</time>
      </trkpt>
      <trkpt lat="50.4889" lon="3.43412">
        <ele>22.778176</ele>
        <time>2021-05-26T21:06:27.291Z</time>
      </trkpt>
      <trkpt lat="50.48866" lon="3.43401">
        <ele>22.405012</ele>
        <time>2021-05-26T21:06:30.151Z</time>
      </trkpt>
      <trkpt lat="50.48835" lon="3.43392">
        <ele>21.940867</ele>
        <time>2021-05-26T21:06:33.703Z</time>
      </trkpt>
      <trkpt lat="50.48831" lon="3.43417">
        <ele>21.685802</ele>
        <time>2021-05-26T21:06:35.786Z</time>
      </trkpt>
      <trkpt lat="50.48777" lon="3.43508">
        <ele>21.483245</ele>
        <time>2021-05-26T21:06:46.131Z</time>
      </trkpt>
      <trkpt lat="50.48772" lon="3.4353">
        <ele>21.47792</ele>
        <time>2021-05-26T21:06:48.293Z</time>
      </trkpt>
      <trkpt lat="50.48774" lon="3.4355">
        <ele>21.473121</ele>
        <time>2021-05-26T21:06:50.673Z</time>
      </trkpt>
      <trkpt lat="50.48786" lon="3.43584">
        <ele>21.464052</ele>
        <time>2021-05-26T21:06:54.389Z</time>
      </trkpt>
      <trkpt lat="50.48793" lon="3.43602">
        <ele>21.459112</ele>
        <time>2021-05-26T21:06:56.957Z</time>
      </trkpt>
      <trkpt lat="50.488" lon="3.4362">
        <ele>21.454211</ele>
        <time>2021-05-26T21:06:59.072Z</time>
      </trkpt>
      <trkpt lat="50.48844" lon="3.43725">
        <ele>21.509609</ele>
        <time>2021-05-26T21:07:12.401Z</time>
      </trkpt>
      <trkpt lat="50.48851" lon="3.4374">
        <ele>21.526296</ele>
        <time>2021-05-26T21:07:14.585Z</time>
      </trkpt>
      <trkpt lat="50.48863" lon="3.43769">
        <ele>21.558336</ele>
        <time>2021-05-26T21:07:17.866Z</time>
      </trkpt>
      <trkpt lat="50.48882" lon="3.43799">
        <ele>21.597495</ele>
        <time>2021-05-26T21:07:22.213Z</time>
      </trkpt>
      <trkpt lat="50.48907" lon="3.43837">
        <ele>21.648348</ele>
        <time>2021-05-26T21:07:27.506Z</time>
      </trkpt>
      <trkpt lat="50.48918" lon="3.43854">
        <ele>21.671874</ele>
        <time>2021-05-26T21:07:29.800Z</time>
      </trkpt>
      <trkpt lat="50.48944" lon="3.43891">
        <ele>21.602485</ele>
        <time>2021-05-26T21:07:34.528Z</time>
      </trkpt>
      <trkpt lat="50.48953" lon="3.43902">
        <ele>21.502061</ele>
        <time>2021-05-26T21:07:36.202Z</time>
      </trkpt>
      <trkpt lat="50.48981" lon="3.43937">
        <ele>21.199796</ele>
        <time>2021-05-26T21:07:40.699Z</time>
      </trkpt>
      <trkpt lat="50.48998" lon="3.43966">
        <ele>20.991333</ele>
        <time>2021-05-26T21:07:43.776Z</time>
      </trkpt>
      <trkpt lat="50.49034" lon="3.44057">
        <ele>20.420173</ele>
        <time>2021-05-26T21:07:52.044Z</time>
      </trkpt>
      <trkpt lat="50.49043" lon="3.44079">
        <ele>20.28032</ele>
        <time>2021-05-26T21:07:54.051Z</time>
      </trkpt>
      <trkpt lat="50.49109" lon="3.44183">
        <ele>19.55203</ele>
        <time>2021-05-26T21:08:05.413Z</time>
      </trkpt>
      <trkpt lat="50.49138" lon="3.44236">
        <ele>19.20508</ele>
        <time>2021-05-26T21:08:11.081Z</time>
      </trkpt>
      <trkpt lat="50.49167" lon="3.44324">
        <ele>18.781101</ele>
        <time>2021-05-26T21:08:19.520Z</time>
      </trkpt>
      <trkpt lat="50.49219" lon="3.44434">
        <ele>18.611294</ele>
        <time>2021-05-26T21:08:31.953Z</time>
      </trkpt>
      <trkpt lat="50.49227" lon="3.44464">
        <ele>18.569971</ele>
        <time>2021-05-26T21:08:35.035Z</time>
      </trkpt>
      <trkpt lat="50.49237" lon="3.44565">
        <ele>18.44153</ele>
        <time>2021-05-26T21:08:44.458Z</time>
      </trkpt>
      <trkpt lat="50.49254" lon="3.44618">
        <ele>18.347018</ele>
        <time>2021-05-26T21:08:49.890Z</time>
      </trkpt>
      <trkpt lat="50.49286" lon="3.44688">
        <ele>18.210927</ele>
        <time>2021-05-26T21:08:57.473Z</time>
      </trkpt>
      <trkpt lat="50.49301" lon="3.44709">
        <ele>18.160519</ele>
        <time>2021-05-26T21:09:00.255Z</time>
      </trkpt>
      <trkpt lat="50.49336" lon="3.44729">
        <ele>18.066713</ele>
        <time>2021-05-26T21:09:05.286Z</time>
      </trkpt>
      <trkpt lat="50.4934" lon="3.44731">
        <ele>18.056777</ele>
        <time>2021-05-26T21:09:05.781Z</time>
      </trkpt>
      <trkpt lat="50.49353" lon="3.4475">
        <ele>18.01282</ele>
        <time>2021-05-26T21:09:08.144Z</time>
      </trkpt>
      <trkpt lat="50.49359" lon="3.44758">
        <ele>18.005706</ele>
        <time>2021-05-26T21:09:09.329Z</time>
      </trkpt>
      <trkpt lat="50.49366" lon="3.44748">
        <ele>18.010826</ele>
        <time>2021-05-26T21:09:10.533Z</time>
      </trkpt>
      <trkpt lat="50.49368" lon="3.44744">
        <ele>18.012747</ele>
        <time>2021-05-26T21:09:10.996Z</time>
      </trkpt>
      <trkpt lat="50.4942" lon="3.44663">
        <ele>18.055636</ele>
        <time>2021-05-26T21:09:22.034Z</time>
      </trkpt>
      <trkpt lat="50.49426" lon="3.44654">
        <ele>18.060475</ele>
        <time>2021-05-26T21:09:23.144Z</time>
      </trkpt>
      <trkpt lat="50.49477" lon="3.44573">
        <ele>18.102711</ele>
        <time>2021-05-26T21:09:34.881Z</time>
      </trkpt>
      <trkpt lat="50.49491" lon="3.44561">
        <ele>18.0992</ele>
        <time>2021-05-26T21:09:37.785Z</time>
      </trkpt>
      <trkpt lat="50.49544" lon="3.44521">
        <ele>18.028143</ele>
        <time>2021-05-26T21:09:46.870Z</time>
      </trkpt>
      <trkpt lat="50.49562" lon="3.44503">
        <ele>18.002132</ele>
        <time>2021-05-26T21:09:50.182Z</time>
      </trkpt>
      <trkpt lat="50.4959" lon="3.44475">
        <ele>17.96244</ele>
        <time>2021-05-26T21:09:54.850Z</time>
      </trkpt>
      <trkpt lat="50.49648" lon="3.44404">
        <ele>17.752346</ele>
        <time>2021-05-26T21:10:04.580Z</time>
      </trkpt>
      <trkpt lat="50.49663" lon="3.44393">
        <ele>17.592882</ele>
        <time>2021-05-26T21:10:06.612Z</time>
      </trkpt>
      <trkpt lat="50.49669" lon="3.44396">
        <ele>17.534427</ele>
        <time>2021-05-26T21:10:07.378Z</time>
      </trkpt>
      <trkpt lat="50.49672" lon="3.44401">
        <ele>17.490395</ele>
        <time>2021-05-26T21:10:07.946Z</time>
      </trkpt>
      <trkpt lat="50.49674" lon="3.44405">
        <ele>17.459153</ele>
        <time>2021-05-26T21:10:08.277Z</time>
      </trkpt>
      <trkpt lat="50.49687" lon="3.44433">
        <ele>17.244074</ele>
        <time>2021-05-26T21:10:11.036Z</time>
      </trkpt>
      <trkpt lat="50.49735" lon="3.44569">
        <ele>16.277536</ele>
        <time>2021-05-26T21:10:22.826Z</time>
      </trkpt>
      <trkpt lat="50.49754" lon="3.44626">
        <ele>16.053887</ele>
        <time>2021-05-26T21:10:27.885Z</time>
      </trkpt>
      <trkpt lat="50.49776" lon="3.4469">
        <ele>15.911759</ele>
        <time>2021-05-26T21:10:34.049Z</time>
      </trkpt>
      <trkpt lat="50.49798" lon="3.44759">
        <ele>15.760182</ele>
        <time>2021-05-26T21:10:40.822Z</time>
      </trkpt>
      <trkpt lat="50.49799" lon="3.44762">
        <ele>15.7539</ele>
        <time>2021-05-26T21:10:41.211Z</time>
      </trkpt>
      <trkpt lat="50.49844" lon="3.44889">
        <ele>15.859334</ele>
        <time>2021-05-26T21:10:55.661Z</time>
      </trkpt>
      <trkpt lat="50.49851" lon="3.44909">
        <ele>15.974595</ele>
        <time>2021-05-26T21:10:58.404Z</time>
      </trkpt>
      <trkpt lat="50.49864" lon="3.44939">
        <ele>16.150447</ele>
        <time>2021-05-26T21:11:02.568Z</time>
      </trkpt>
      <trkpt lat="50.49867" lon="3.44946">
        <ele>16.191127</ele>
        <time>2021-05-26T21:11:03.593Z</time>
      </trkpt>
      <trkpt lat="50.49874" lon="3.44964">
        <ele>16.294667</ele>
        <time>2021-05-26T21:11:06.268Z</time>
      </trkpt>
      <trkpt lat="50.49935" lon="3.45106">
        <ele>17.023437</ele>
        <time>2021-05-26T21:11:27.001Z</time>
      </trkpt>
      <trkpt lat="50.49943" lon="3.45125">
        <ele>17.067723</ele>
        <time>2021-05-26T21:11:29.549Z</time>
      </trkpt>
      <trkpt lat="50.49958" lon="3.45159">
        <ele>17.14501</ele>
        <time>2021-05-26T21:11:33.670Z</time>
      </trkpt>
      <trkpt lat="50.49974" lon="3.45177">
        <ele>17.204395</ele>
        <time>2021-05-26T21:11:36.823Z</time>
      </trkpt>
      <trkpt lat="50.49999" lon="3.45188">
        <ele>17.278704</ele>
        <time>2021-05-26T21:11:40.465Z</time>
      </trkpt>
      <trkpt lat="50.50005" lon="3.45189">
        <ele>17.297575</ele>
        <time>2021-05-26T21:11:41.501Z</time>
      </trkpt>
      <trkpt lat="50.50044" lon="3.45199">
        <ele>17.415004</ele>
        <time>2021-05-26T21:11:47.657Z</time>
      </trkpt>
      <trkpt lat="50.50051" lon="3.45202">
        <ele>17.435828</ele>
        <time>2021-05-26T21:11:48.711Z</time>
      </trkpt>
      <trkpt lat="50.50052" lon="3.45203">
        <ele>17.440754</ele>
        <time>2021-05-26T21:11:48.965Z</time>
      </trkpt>
      <trkpt lat="50.50084" lon="3.45223">
        <ele>17.480577</ele>
        <time>2021-05-26T21:11:54.224Z</time>
      </trkpt>
      <trkpt lat="50.50092" lon="3.45227">
        <ele>17.475178</ele>
        <time>2021-05-26T21:11:55.438Z</time>
      </trkpt>
      <trkpt lat="50.5013" lon="3.45249">
        <ele>17.449603</ele>
        <time>2021-05-26T21:12:00.926Z</time>
      </trkpt>
      <trkpt lat="50.50142" lon="3.45258">
        <ele>17.44118</ele>
        <time>2021-05-26T21:12:02.816Z</time>
      </trkpt>
      <trkpt lat="50.50193" lon="3.45294">
        <ele>17.405402</ele>
        <time>2021-05-26T21:12:10.370Z</time>
      </trkpt>
      <trkpt lat="50.50229" lon="3.45322">
        <ele>17.380234</ele>
        <time>2021-05-26T21:12:16.090Z</time>
      </trkpt>
      <trkpt lat="50.5031" lon="3.45386">
        <ele>17.835358</ele>
        <time>2021-05-26T21:12:32.553Z</time>
      </trkpt>
      <trkpt lat="50.50341" lon="3.45413">
        <ele>18.024526</ele>
        <time>2021-05-26T21:12:38.607Z</time>
      </trkpt>
      <trkpt lat="50.50355" lon="3.45425">
        <ele>18.10994</ele>
        <time>2021-05-26T21:12:41.223Z</time>
      </trkpt>
      <trkpt lat="50.50407" lon="3.45459">
        <ele>18.40705</ele>
        <time>2021-05-26T21:12:50.573Z</time>
      </trkpt>
      <trkpt lat="50.50416" lon="3.45464">
        <ele>18.458915</ele>
        <time>2021-05-26T21:12:52.241Z</time>
      </trkpt>
      <trkpt lat="50.50444" lon="3.45482">
        <ele>18.613602</ele>
        <time>2021-05-26T21:12:57.390Z</time>
      </trkpt>
      <trkpt lat="50.50447" lon="3.4549">
        <ele>18.644905</ele>
        <time>2021-05-26T21:12:58.393Z</time>
      </trkpt>
      <trkpt lat="50.50448" lon="3.45508">
        <ele>18.706236</ele>
        <time>2021-05-26T21:13:00.361Z</time>
      </trkpt>
      <trkpt lat="50.50443" lon="3.45552">
        <ele>18.85184</ele>
        <time>2021-05-26T21:13:05.427Z</time>
      </trkpt>
      <trkpt lat="50.50441" lon="3.45568">
        <ele>18.905838</ele>
        <time>2021-05-26T21:13:07.108Z</time>
      </trkpt>
      <trkpt lat="50.50441" lon="3.45573">
        <ele>18.922812</ele>
        <time>2021-05-26T21:13:07.640Z</time>
      </trkpt>
      <trkpt lat="50.5044" lon="3.45588">
        <ele>18.973619</ele>
        <time>2021-05-26T21:13:09.490Z</time>
      </trkpt>
      <trkpt lat="50.50437" lon="3.45631">
        <ele>19.117826</ele>
        <time>2021-05-26T21:13:13.816Z</time>
      </trkpt>
      <trkpt lat="50.50436" lon="3.45642">
        <ele>19.154296</ele>
        <time>2021-05-26T21:13:15.204Z</time>
      </trkpt>
      <trkpt lat="50.50433" lon="3.4572">
        <ele>19.388258</ele>
        <time>2021-05-26T21:13:23.212Z</time>
      </trkpt>
      <trkpt lat="50.50424" lon="3.45772">
        <ele>19.538759</ele>
        <time>2021-05-26T21:13:28.884Z</time>
      </trkpt>
      <trkpt lat="50.5041" lon="3.45851">
        <ele>19.765952</ele>
        <time>2021-05-26T21:13:37.460Z</time>
      </trkpt>
      <trkpt lat="50.50361" lon="3.46074">
        <ele>20.054709</ele>
        <time>2021-05-26T21:14:02.815Z</time>
      </trkpt>
      <trkpt lat="50.50345" lon="3.46155">
        <ele>20.054709</ele>
        <time>2021-05-26T21:14:11.964Z</time>
      </trkpt>
      <trkpt lat="50.50335" lon="3.46236">
        <ele>20.054709</ele>
        <time>2021-05-26T21:14:20.719Z</time>
      </trkpt>
      <trkpt lat="50.50332" lon="3.46257">
        <ele>20.054709</ele>
        <time>2021-05-26T21:14:22.811Z</time>
      </trkpt>
    </trkseg>
  </trk>
</gpx>